Observation data for Fort Chadbourne on 12/13/2018      Previous  Date       Current Mesonet Observations  Soil Data  Daily Summary Page  Observations in Plain Language
KCH1 130601Z 21002KT 10/09 A2977 RMK A01 T01010085  RH  090%=      5-min Rain = 0
KCH1 130602Z 22003KT 10/08 A2977 RMK A01 T01010084  RH  089%=      5-min Rain = 0
KCH1 130603Z 20003KT 10/08 A2977 RMK A01 T01020084  RH  089%=      5-min Rain = 0
KCH1 130604Z 20003KT 10/09 A2977 RMK A01 T01030085  RH  089%=      5-min Rain = 0
KCH1 130605Z 19004KT 10/09 A2976 RMK A01 T01040085  RH  088%=      5-min Rain = 0
KCH1 130606Z 19003KT 10/08 A2976 RMK A01 T01040084  RH  088%=      5-min Rain = 0
KCH1 130607Z 19005KT 10/09 A2976 RMK A01 T01040085  RH  088%=      5-min Rain = 0
KCH1 130608Z 20005KT 11/09 A2976 RMK A01 T01050085  RH  088%=      5-min Rain = 0
KCH1 130609Z 20005KT 11/09 A2976 RMK A01 T01050085  RH  087%=      5-min Rain = 0
KCH1 130610Z 20004KT 11/09 A2976 RMK A01 T01060085  RH  087%=      5-min Rain = 0
KCH1 130611Z 20005KT 11/09 A2976 RMK A01 T01060085  RH  087%=      5-min Rain = 0
KCH1 130612Z 20004KT 11/09 A2976 RMK A01 T01070085  RH  086%=      5-min Rain = 0
KCH1 130613Z 20005KT 11/09 A2976 RMK A01 T01070085  RH  086%=      5-min Rain = 0
KCH1 130614Z 20004KT 11/09 A2976 RMK A01 T01070085  RH  086%=      5-min Rain = 0
KCH1 130615Z 21004KT 11/09 A2976 RMK A01 T01070085  RH  086%=      5-min Rain = 0
KCH1 130616Z 20004KT 11/08 A2976 RMK A01 T01060084  RH  086%=      5-min Rain = 0
KCH1 130617Z 21003KT 11/08 A2976 RMK A01 T01060084  RH  086%=      5-min Rain = 0
KCH1 130618Z 21003KT 11/08 A2976 RMK A01 T01050084  RH  087%=      5-min Rain = 0
KCH1 130619Z 21003KT 11/08 A2976 RMK A01 T01050084  RH  087%=      5-min Rain = 0
KCH1 130620Z 21004KT 11/08 A2976 RMK A01 T01050084  RH  087%=      5-min Rain = 0
KCH1 130621Z 21004KT 11/08 A2976 RMK A01 T01050084  RH  087%=      5-min Rain = 0
KCH1 130622Z 21004KT 11/08 A2976 RMK A01 T01050084  RH  087%=      5-min Rain = 0
KCH1 130623Z 21004KT 11/08 A2976 RMK A01 T01050084  RH  087%=      5-min Rain = 0
KCH1 130624Z 21003KT 11/08 A2976 RMK A01 T01050084  RH  087%=      5-min Rain = 0
KCH1 130625Z 22004KT 11/08 A2976 RMK A01 T01050084  RH  087%=      5-min Rain = 0
KCH1 130626Z 21004KT 11/08 A2976 RMK A01 T01050084  RH  087%=      5-min Rain = 0
KCH1 130627Z 22004KT 11/08 A2976 RMK A01 T01050084  RH  087%=      5-min Rain = 0
KCH1 130628Z 22004KT 11/08 A2976 RMK A01 T01050084  RH  087%=      5-min Rain = 0
KCH1 130629Z 22003KT 11/08 A2976 RMK A01 T01050084  RH  087%=      5-min Rain = 0
KCH1 130630Z 22004KT 10/08 A2976 RMK A01 T01040083  RH  087%=      5-min Rain = 0
KCH1 130631Z 22004KT 10/08 A2976 RMK A01 T01030083  RH  087%=      5-min Rain = 0
KCH1 130632Z 22003KT 10/08 A2976 RMK A01 T01030083  RH  087%=      5-min Rain = 0
KCH1 130633Z 21004KT 10/08 A2976 RMK A01 T01030083  RH  088%=      5-min Rain = 0
KCH1 130634Z 21004KT 10/08 A2976 RMK A01 T01020083  RH  088%=      5-min Rain = 0
KCH1 130635Z 21004KT 10/08 A2976 RMK A01 T01020083  RH  088%=      5-min Rain = 0
KCH1 130636Z 21004KT 10/08 A2976 RMK A01 T01010082  RH  088%=      5-min Rain = 0
KCH1 130637Z 21004KT 10/08 A2976 RMK A01 T01010083  RH  088%=      5-min Rain = 0
KCH1 130638Z 20004KT 10/08 A2976 RMK A01 T01010082  RH  088%=      5-min Rain = 0
KCH1 130639Z 20004KT 10/08 A2975 RMK A01 T01000082  RH  089%=      5-min Rain = 0
KCH1 130640Z 20005KT 10/08 A2975 RMK A01 T00990082  RH  089%=      5-min Rain = 0
KCH1 130641Z 20005KT 10/08 A2975 RMK A01 T00990081  RH  089%=      5-min Rain = 0
KCH1 130642Z 20005KT 10/08 A2975 RMK A01 T00980081  RH  089%=      5-min Rain = 0
KCH1 130643Z 19005KT 10/08 A2975 RMK A01 T00980081  RH  090%=      5-min Rain = 0
KCH1 130644Z 20005KT 10/08 A2975 RMK A01 T00980081  RH  090%=      5-min Rain = 0
KCH1 130645Z 20005KT 10/08 A2975 RMK A01 T00970081  RH  090%=      5-min Rain = 0
KCH1 130646Z 20004KT 10/08 A2975 RMK A01 T00970081  RH  090%=      5-min Rain = 0
KCH1 130647Z 20004KT 10/08 A2975 RMK A01 T00970081  RH  090%=      5-min Rain = 0
KCH1 130648Z 19005KT 10/08 A2975 RMK A01 T00960081  RH  090%=      5-min Rain = 0
KCH1 130649Z 19005KT 10/08 A2975 RMK A01 T00960081  RH  090%=      5-min Rain = 0
KCH1 130650Z 19005KT 10/08 A2975 RMK A01 T00960081  RH  090%=      5-min Rain = 0
KCH1 130651Z 20004KT 10/08 A2975 RMK A01 T00950080  RH  090%=      5-min Rain = 0
KCH1 130652Z 20003KT 10/08 A2975 RMK A01 T00950080  RH  090%=      5-min Rain = 0
KCH1 130653Z 19003KT 10/08 A2975 RMK A01 T00950081  RH  091%=      5-min Rain = 0
KCH1 130654Z 18003KT 10/08 A2975 RMK A01 T00950081  RH  091%=      5-min Rain = 0
KCH1 130655Z 18002KT 10/08 A2975 RMK A01 T00950081  RH  091%=      5-min Rain = 0
KCH1 130656Z 18002KT 09/08 A2975 RMK A01 T00940080  RH  091%=      5-min Rain = 0
KCH1 130657Z 17001KT 09/08 A2975 RMK A01 T00940079  RH  091%=      5-min Rain = 0
KCH1 130658Z 18001KT 09/08 A2975 RMK A01 T00930078  RH  090%=      5-min Rain = 0
KCH1 130659Z 19002KT 09/08 A2975 RMK A01 T00920077  RH  091%=      5-min Rain = 0
KCH1 130700Z 21001KT 09/08 A2975 RMK A01 T00910077  RH  091%=      5-min Rain = 0
KCH1 130701Z 19001KT 09/08 A2975 RMK A01 T00900077  RH  091%=      5-min Rain = 0
KCH1 130702Z 19002KT 09/08 A2975 RMK A01 T00900077  RH  092%=      5-min Rain = 0
KCH1 130703Z 18002KT 09/08 A2975 RMK A01 T00900078  RH  092%=      5-min Rain = 0
KCH1 130704Z 17002KT 09/08 A2975 RMK A01 T00900078  RH  092%=      5-min Rain = 0
KCH1 130705Z 16001KT 09/08 A2975 RMK A01 T00900078  RH  092%=      5-min Rain = 0
KCH1 130706Z 18001KT 09/08 A2975 RMK A01 T00890078  RH  092%=      5-min Rain = 0
KCH1 130707Z 16001KT 09/08 A2974 RMK A01 T00890078  RH  093%=      5-min Rain = 0
KCH1 130708Z 17001KT 09/08 A2974 RMK A01 T00890078  RH  093%=      5-min Rain = 0
KCH1 130709Z 15000KT 09/08 A2974 RMK A01 T00890079  RH  093%=      5-min Rain = 0
KCH1 130710Z 16000KT 09/08 A2974 RMK A01 T00890078  RH  093%=      5-min Rain = 0
KCH1 130711Z 13001KT 09/08 A2974 RMK A01 T00870076  RH  093%=      5-min Rain = 0
KCH1 130712Z 14001KT 09/07 A2974 RMK A01 T00860074  RH  093%=      5-min Rain = 0
KCH1 130713Z 09001KT 09/08 A2974 RMK A01 T00860075  RH  093%=      5-min Rain = 0
KCH1 130714Z 12000KT 09/08 A2974 RMK A01 T00850075  RH  094%=      5-min Rain = 0
KCH1 130715Z 15001KT 09/08 A2974 RMK A01 T00850075  RH  094%=      5-min Rain = 0
KCH1 130716Z 14001KT 08/08 A2974 RMK A01 T00840075  RH  094%=      5-min Rain = 0
KCH1 130717Z 17001KT 08/08 A2974 RMK A01 T00840075  RH  094%=      5-min Rain = 0
KCH1 130718Z 16002KT 08/08 A2974 RMK A01 T00830075  RH  094%=      5-min Rain = 0
KCH1 130719Z 18002KT 08/07 A2974 RMK A01 T00830074  RH  094%=      5-min Rain = 0
KCH1 130720Z 16001KT 08/07 A2974 RMK A01 T00820073  RH  094%=      5-min Rain = 0
KCH1 130721Z 16003KT 08/07 A2974 RMK A01 T00820074  RH  095%=      5-min Rain = 0
KCH1 130722Z 18004KT 08/07 A2974 RMK A01 T00820074  RH  095%=      5-min Rain = 0
KCH1 130723Z 18004KT 08/08 A2974 RMK A01 T00820075  RH  096%=      5-min Rain = 0
KCH1 130724Z 19003KT 08/08 A2974 RMK A01 T00830076  RH  096%=      5-min Rain = 0
KCH1 130725Z 21004KT 08/08 A2974 RMK A01 T00830076  RH  095%=      5-min Rain = 0
KCH1 130726Z 20004KT 08/08 A2974 RMK A01 T00840077  RH  095%=      5-min Rain = 0
KCH1 130727Z 20004KT 09/08 A2974 RMK A01 T00860079  RH  095%=      5-min Rain = 0
KCH1 130728Z 20004KT 09/08 A2974 RMK A01 T00880080  RH  095%=      5-min Rain = 0
KCH1 130729Z 20005KT 09/08 A2974 RMK A01 T00900081  RH  094%=      5-min Rain = 0
KCH1 130730Z 20005KT 09/08 A2974 RMK A01 T00920081  RH  093%=      5-min Rain = 0
KCH1 130731Z 20005KT 09/08 A2974 RMK A01 T00920080  RH  092%=      5-min Rain = 0
KCH1 130732Z 20005KT 09/08 A2974 RMK A01 T00930080  RH  092%=      5-min Rain = 0
KCH1 130733Z 21004KT 09/08 A2974 RMK A01 T00940080  RH  091%=      5-min Rain = 0
KCH1 130734Z 21003KT 09/08 A2974 RMK A01 T00940080  RH  091%=      5-min Rain = 0
KCH1 130735Z 21003KT 09/08 A2974 RMK A01 T00940080  RH  091%=      5-min Rain = 0
KCH1 130736Z 20003KT 09/08 A2974 RMK A01 T00940080  RH  091%=      5-min Rain = 0
KCH1 130737Z 21002KT 09/08 A2974 RMK A01 T00940080  RH  091%=      5-min Rain = 0
KCH1 130738Z 20001KT 09/08 A2974 RMK A01 T00940080  RH  091%=      5-min Rain = 0
KCH1 130739Z 21001KT 09/08 A2973 RMK A01 T00940080  RH  091%=      5-min Rain = 0
KCH1 130740Z 20001KT 09/08 A2973 RMK A01 T00940080  RH  091%=      5-min Rain = 0
KCH1 130741Z 18001KT 09/08 A2973 RMK A01 T00940080  RH  091%=      5-min Rain = 0
KCH1 130742Z 18002KT 09/08 A2973 RMK A01 T00940080  RH  091%=      5-min Rain = 0
KCH1 130743Z 18002KT 09/08 A2973 RMK A01 T00930079  RH  091%=      5-min Rain = 0
KCH1 130744Z 18002KT 09/08 A2973 RMK A01 T00930079  RH  091%=      5-min Rain = 0
KCH1 130745Z 19003KT 09/08 A2973 RMK A01 T00930079  RH  091%=      5-min Rain = 0
KCH1 130746Z 19003KT 09/08 A2973 RMK A01 T00930079  RH  091%=      5-min Rain = 0
KCH1 130747Z 19003KT 09/08 A2973 RMK A01 T00930079  RH  091%=      5-min Rain = 0
KCH1 130748Z 19002KT 09/08 A2973 RMK A01 T00930079  RH  091%=      5-min Rain = 0
KCH1 130749Z 19002KT 09/08 A2973 RMK A01 T00930078  RH  091%=      5-min Rain = 0
KCH1 130750Z 20002KT 09/08 A2973 RMK A01 T00920078  RH  091%=      5-min Rain = 0
KCH1 130751Z 20003KT 09/08 A2973 RMK A01 T00920078  RH  091%=      5-min Rain = 0
KCH1 130752Z 19002KT 09/08 A2973 RMK A01 T00920079  RH  091%=      5-min Rain = 0
KCH1 130753Z 20002KT 09/08 A2973 RMK A01 T00920078  RH  091%=      5-min Rain = 0
KCH1 130754Z 20002KT 09/08 A2973 RMK A01 T00910078  RH  091%=      5-min Rain = 0
KCH1 130755Z 19002KT 09/08 A2973 RMK A01 T00910078  RH  092%=      5-min Rain = 0
KCH1 130756Z 19002KT 09/08 A2973 RMK A01 T00910078  RH  091%=      5-min Rain = 0
KCH1 130757Z 20003KT 09/08 A2973 RMK A01 T00910077  RH  092%=      5-min Rain = 0
KCH1 130758Z 19003KT 09/08 A2973 RMK A01 T00900078  RH  092%=      5-min Rain = 0
KCH1 130759Z 19002KT 09/08 A2973 RMK A01 T00900078  RH  092%=      5-min Rain = 0
KCH1 130800Z 21002KT 09/08 A2973 RMK A01 T00900078  RH  092%=      5-min Rain = 0
KCH1 130801Z 22003KT 09/08 A2973 RMK A01 T00900078  RH  092%=      5-min Rain = 0
KCH1 130802Z 21002KT 09/08 A2973 RMK A01 T00900079  RH  093%=      5-min Rain = 0
KCH1 130803Z 21002KT 09/08 A2973 RMK A01 T00900078  RH  092%=      5-min Rain = 0
KCH1 130804Z 21002KT 09/08 A2973 RMK A01 T00900078  RH  092%=      5-min Rain = 0
KCH1 130805Z 20002KT 09/08 A2973 RMK A01 T00900078  RH  092%=      5-min Rain = 0
KCH1 130806Z 19001KT 09/08 A2973 RMK A01 T00890078  RH  092%=      5-min Rain = 0
KCH1 130807Z 18002KT 09/08 A2973 RMK A01 T00890077  RH  092%=      5-min Rain = 0
KCH1 130808Z 19002KT 09/08 A2973 RMK A01 T00880075  RH  092%=      5-min Rain = 0
KCH1 130809Z 19001KT 09/07 A2973 RMK A01 T00870074  RH  092%=      5-min Rain = 0
KCH1 130810Z 18001KT 09/07 A2973 RMK A01 T00850072  RH  092%=      5-min Rain = 0
KCH1 130811Z 19001KT 08/07 A2973 RMK A01 T00820069  RH  092%=      5-min Rain = 0
KCH1 130812Z 16000KT 08/07 A2973 RMK A01 T00810068  RH  092%=      5-min Rain = 0
KCH1 130813Z 20000KT 08/07 A2973 RMK A01 T00790068  RH  093%=      5-min Rain = 0
KCH1 130814Z 18001KT 08/07 A2973 RMK A01 T00780068  RH  093%=      5-min Rain = 0
KCH1 130815Z 19001KT 08/07 A2973 RMK A01 T00780070  RH  094%=      5-min Rain = 0
KCH1 130816Z 18001KT 08/07 A2973 RMK A01 T00770069  RH  094%=      5-min Rain = 0
KCH1 130817Z 19001KT 08/07 A2972 RMK A01 T00770069  RH  095%=      5-min Rain = 0
KCH1 130818Z 20002KT 08/07 A2972 RMK A01 T00770070  RH  095%=      5-min Rain = 0
KCH1 130819Z 20001KT 08/07 A2972 RMK A01 T00770070  RH  095%=      5-min Rain = 0
KCH1 130820Z 20002KT 08/07 A2972 RMK A01 T00770071  RH  096%=      5-min Rain = 0
KCH1 130821Z 21002KT 08/07 A2972 RMK A01 T00770072  RH  096%=      5-min Rain = 0
KCH1 130822Z 22003KT 08/07 A2972 RMK A01 T00780073  RH  097%=      5-min Rain = 0
KCH1 130823Z 21003KT 08/08 A2972 RMK A01 T00800075  RH  097%=      5-min Rain = 0
KCH1 130824Z 21004KT 08/08 A2972 RMK A01 T00810076  RH  097%=      5-min Rain = 0
KCH1 130825Z 21003KT 08/08 A2972 RMK A01 T00810077  RH  097%=      5-min Rain = 0
KCH1 130826Z 21004KT 08/08 A2972 RMK A01 T00830078  RH  097%=      5-min Rain = 0
KCH1 130827Z 21004KT 08/08 A2972 RMK A01 T00830078  RH  097%=      5-min Rain = 0
KCH1 130828Z 20005KT 08/08 A2972 RMK A01 T00840079  RH  097%=      5-min Rain = 0
KCH1 130829Z 20005KT 09/08 A2972 RMK A01 T00850079  RH  096%=      5-min Rain = 0
KCH1 130830Z 20005KT 09/08 A2972 RMK A01 T00860080  RH  096%=      5-min Rain = 0
KCH1 130831Z 20005KT 09/08 A2972 RMK A01 T00870080  RH  095%=      5-min Rain = 0
KCH1 130832Z 21005KT 09/08 A2972 RMK A01 T00870079  RH  095%=      5-min Rain = 0
KCH1 130833Z 20004KT 09/08 A2972 RMK A01 T00880079  RH  094%=      5-min Rain = 0
KCH1 130834Z 20004KT 09/08 A2972 RMK A01 T00880079  RH  094%=      5-min Rain = 0
KCH1 130835Z 20004KT 09/08 A2971 RMK A01 T00880079  RH  094%=      5-min Rain = 0
KCH1 130836Z 20005KT 09/08 A2971 RMK A01 T00880078  RH  094%=      5-min Rain = 0
KCH1 130837Z 20005KT 09/08 A2971 RMK A01 T00880078  RH  094%=      5-min Rain = 0
KCH1 130838Z 21005KT 09/08 A2971 RMK A01 T00880079  RH  094%=      5-min Rain = 0
KCH1 130839Z 21005KT 09/08 A2971 RMK A01 T00880078  RH  094%=      5-min Rain = 0
KCH1 130840Z 20005KT 09/08 A2971 RMK A01 T00880078  RH  094%=      5-min Rain = 0
KCH1 130841Z 20005KT 09/08 A2971 RMK A01 T00890079  RH  094%=      5-min Rain = 0
KCH1 130842Z 21005KT 09/08 A2971 RMK A01 T00890078  RH  093%=      5-min Rain = 0
KCH1 130843Z 20005KT 09/08 A2971 RMK A01 T00880078  RH  093%=      5-min Rain = 0
KCH1 130844Z 20006KT 09/08 A2971 RMK A01 T00880078  RH  093%=      5-min Rain = 0
KCH1 130845Z 20005KT 09/08 A2971 RMK A01 T00880078  RH  094%=      5-min Rain = 0
KCH1 130846Z 20006KT 09/08 A2971 RMK A01 T00880078  RH  094%=      5-min Rain = 0
KCH1 130847Z 20006KT 09/08 A2971 RMK A01 T00880079  RH  094%=      5-min Rain = 0
KCH1 130848Z 20005KT 09/08 A2971 RMK A01 T00880079  RH  094%=      5-min Rain = 0
KCH1 130849Z 21004KT 09/08 A2971 RMK A01 T00880079  RH  094%=      5-min Rain = 0
KCH1 130850Z 22004KT 09/08 A2971 RMK A01 T00880079  RH  094%=      5-min Rain = 0
KCH1 130851Z 21004KT 09/08 A2971 RMK A01 T00890078  RH  093%=      5-min Rain = 0
KCH1 130852Z 21004KT 09/08 A2971 RMK A01 T00880078  RH  093%=      5-min Rain = 0
KCH1 130853Z 21004KT 09/08 A2971 RMK A01 T00880078  RH  094%=      5-min Rain = 0
KCH1 130854Z 21004KT 09/08 A2971 RMK A01 T00880078  RH  094%=      5-min Rain = 0
KCH1 130855Z 21004KT 09/08 A2971 RMK A01 T00870078  RH  094%=      5-min Rain = 0
KCH1 130856Z 21004KT 09/08 A2971 RMK A01 T00870078  RH  094%=      5-min Rain = 0
KCH1 130857Z 21004KT 09/08 A2971 RMK A01 T00870078  RH  094%=      5-min Rain = 0
KCH1 130858Z 21004KT 09/08 A2971 RMK A01 T00870078  RH  094%=      5-min Rain = 0
KCH1 130859Z 21004KT 09/08 A2971 RMK A01 T00870078  RH  094%=      5-min Rain = 0
KCH1 130900Z 22004KT 09/08 A2971 RMK A01 T00860077  RH  094%=      5-min Rain = 0
KCH1 130901Z 22004KT 09/08 A2971 RMK A01 T00860077  RH  094%=      5-min Rain = 0
KCH1 130902Z 21004KT 09/08 A2971 RMK A01 T00860077  RH  094%=      5-min Rain = 0
KCH1 130903Z 20003KT 09/08 A2971 RMK A01 T00850076  RH  094%=      5-min Rain = 0
KCH1 130904Z 20003KT 08/08 A2971 RMK A01 T00840076  RH  094%=      5-min Rain = 0
KCH1 130905Z 21004KT 08/08 A2971 RMK A01 T00840076  RH  095%=      5-min Rain = 0
KCH1 130906Z 20002KT 08/08 A2971 RMK A01 T00840076  RH  095%=      5-min Rain = 0
KCH1 130907Z 21003KT 08/08 A297 RMK A01 T00840077  RH  095%=      5-min Rain = 0
KCH1 130908Z 22003KT 08/08 A297 RMK A01 T00840077  RH  095%=      5-min Rain = 0
KCH1 130909Z 20002KT 08/08 A297 RMK A01 T00840077  RH  095%=      5-min Rain = 0
KCH1 130910Z 21003KT 08/08 A297 RMK A01 T00840077  RH  095%=      5-min Rain = 0
KCH1 130911Z 21003KT 08/08 A2971 RMK A01 T00840077  RH  095%=      5-min Rain = 0
KCH1 130912Z 21002KT 08/08 A2971 RMK A01 T00840077  RH  095%=      5-min Rain = 0
KCH1 130913Z 22003KT 08/08 A2971 RMK A01 T00830076  RH  095%=      5-min Rain = 0
KCH1 130914Z 21002KT 08/08 A2971 RMK A01 T00830076  RH  096%=      5-min Rain = 0
KCH1 130915Z 24003KT 08/08 A2971 RMK A01 T00830077  RH  096%=      5-min Rain = 0
KCH1 130916Z 22002KT 08/08 A2971 RMK A01 T00830076  RH  096%=      5-min Rain = 0
KCH1 130917Z 22002KT 08/08 A2971 RMK A01 T00820076  RH  096%=      5-min Rain = 0
KCH1 130918Z 23002KT 08/08 A2971 RMK A01 T00820075  RH  096%=      5-min Rain = 0
KCH1 130919Z 23002KT 08/08 A2971 RMK A01 T00810075  RH  096%=      5-min Rain = 0
KCH1 130920Z 23002KT 08/08 A2971 RMK A01 T00810075  RH  096%=      5-min Rain = 0
KCH1 130921Z 23002KT 08/08 A2971 RMK A01 T00810075  RH  096%=      5-min Rain = 0
KCH1 130922Z 23002KT 08/08 A2971 RMK A01 T00810075  RH  096%=      5-min Rain = 0
KCH1 130923Z 24002KT 08/08 A2971 RMK A01 T00810075  RH  096%=      5-min Rain = 0
KCH1 130924Z 22002KT 08/08 A2971 RMK A01 T00810075  RH  096%=      5-min Rain = 0
KCH1 130925Z 23003KT 08/08 A2971 RMK A01 T00800075  RH  096%=      5-min Rain = 0
KCH1 130926Z 24002KT 08/07 A2971 RMK A01 T00800074  RH  096%=      5-min Rain = 0
KCH1 130927Z 24001KT 08/07 A297 RMK A01 T00790074  RH  096%=      5-min Rain = 0
KCH1 130928Z 23002KT 08/07 A297 RMK A01 T00790073  RH  096%=      5-min Rain = 0
KCH1 130929Z 24002KT 08/07 A297 RMK A01 T00790074  RH  097%=      5-min Rain = 0
KCH1 130930Z 23002KT 08/07 A297 RMK A01 T00790074  RH  097%=      5-min Rain = 0
KCH1 130931Z 23002KT 08/07 A297 RMK A01 T00790074  RH  097%=      5-min Rain = 0
KCH1 130932Z 22002KT 08/07 A297 RMK A01 T00790074  RH  097%=      5-min Rain = 0
KCH1 130933Z 22003KT 08/07 A297 RMK A01 T00790074  RH  097%=      5-min Rain = 0
KCH1 130934Z 22003KT 08/07 A297 RMK A01 T00790074  RH  097%=      5-min Rain = 0
KCH1 130935Z 23003KT 08/08 A297 RMK A01 T00790075  RH  097%=      5-min Rain = 0
KCH1 130936Z 22003KT 08/08 A297 RMK A01 T00790075  RH  097%=      5-min Rain = 0
KCH1 130937Z 22004KT 08/08 A297 RMK A01 T00790075  RH  097%=      5-min Rain = 0
KCH1 130938Z 22003KT 08/08 A297 RMK A01 T00790075  RH  097%=      5-min Rain = 0
KCH1 130939Z 22003KT 08/07 A297 RMK A01 T00790074  RH  097%=      5-min Rain = 0
KCH1 130940Z 22004KT 08/08 A297 RMK A01 T00790075  RH  097%=      5-min Rain = 0
KCH1 130941Z 22004KT 08/08 A297 RMK A01 T00790075  RH  097%=      5-min Rain = 0
KCH1 130942Z 22004KT 08/08 A297 RMK A01 T00790075  RH  097%=      5-min Rain = 0
KCH1 130943Z 22004KT 08/08 A297 RMK A01 T00790075  RH  097%=      5-min Rain = 0
KCH1 130944Z 23003KT 08/07 A297 RMK A01 T00790074  RH  097%=      5-min Rain = 0
KCH1 130945Z 23003KT 08/07 A297 RMK A01 T00780074  RH  097%=      5-min Rain = 0
KCH1 130946Z 23003KT 08/08 A297 RMK A01 T00790075  RH  097%=      5-min Rain = 0
KCH1 130947Z 23003KT 08/07 A297 RMK A01 T00780074  RH  097%=      5-min Rain = 0
KCH1 130948Z 23003KT 08/07 A297 RMK A01 T00780074  RH  097%=      5-min Rain = 0
KCH1 130949Z 23003KT 08/07 A297 RMK A01 T00780074  RH  097%=      5-min Rain = 0
KCH1 130950Z 24003KT 08/07 A297 RMK A01 T00780074  RH  097%=      5-min Rain = 0
KCH1 130951Z 24002KT 08/07 A297 RMK A01 T00780074  RH  097%=      5-min Rain = 0
KCH1 130952Z 25003KT 08/07 A297 RMK A01 T00770074  RH  097%=      5-min Rain = 0
KCH1 130953Z 24003KT 08/07 A297 RMK A01 T00780074  RH  098%=      5-min Rain = 0
KCH1 130954Z 24002KT 08/07 A297 RMK A01 T00770074  RH  098%=      5-min Rain = 0
KCH1 130955Z 25001KT 08/08 A297 RMK A01 T00780075  RH  098%=      5-min Rain = 0
KCH1 130956Z 25002KT 08/07 A297 RMK A01 T00770074  RH  097%=      5-min Rain = 0
KCH1 130957Z 25000KT 08/07 A297 RMK A01 T00750070  RH  097%=      5-min Rain = 0
KCH1 130958Z 26000KT 07/07 A297 RMK A01 T00730066  RH  096%=      5-min Rain = 0
KCH1 130959Z 00000KT 07/07 A2969 RMK A01 T00710065  RH  096%=      5-min Rain = 0
KCH1 131000Z 07000KT 07/06 A2969 RMK A01 T00690063  RH  096%=      5-min Rain = 0
KCH1 131001Z 07001KT 07/06 A2969 RMK A01 T00680063  RH  096%=      5-min Rain = 0
KCH1 131002Z 06002KT 07/06 A2969 RMK A01 T00680063  RH  097%=      5-min Rain = 0
KCH1 131003Z 07001KT 07/06 A2969 RMK A01 T00660062  RH  097%=      5-min Rain = 0
KCH1 131004Z 06002KT 07/06 A2969 RMK A01 T00660061  RH  097%=      5-min Rain = 0
KCH1 131005Z 06002KT 06/06 A2969 RMK A01 T00640060  RH  097%=      5-min Rain = 0
KCH1 131006Z 06002KT 06/06 A2969 RMK A01 T00640060  RH  098%=      5-min Rain = 0
KCH1 131007Z 08002KT 06/06 A2969 RMK A01 T00630059  RH  098%=      5-min Rain = 0
KCH1 131008Z 07002KT 06/06 A2969 RMK A01 T00620059  RH  098%=      5-min Rain = 0
KCH1 131009Z 07003KT 06/06 A2969 RMK A01 T00620060  RH  098%=      5-min Rain = 0
KCH1 131010Z 07002KT 06/06 A2969 RMK A01 T00620060  RH  098%=      5-min Rain = 0
KCH1 131011Z 08002KT 06/06 A2969 RMK A01 T00620059  RH  098%=      5-min Rain = 0
KCH1 131012Z 08003KT 06/06 A2969 RMK A01 T00610059  RH  098%=      5-min Rain = 0
KCH1 131013Z 09002KT 06/06 A2969 RMK A01 T00620060  RH  099%=      5-min Rain = 0
KCH1 131014Z 09002KT 06/06 A2969 RMK A01 T00630061  RH  099%=      5-min Rain = 0
KCH1 131015Z 09002KT 06/06 A2969 RMK A01 T00630062  RH  099%=      5-min Rain = 0
KCH1 131016Z 08002KT 06/06 A2968 RMK A01 T00640063  RH  099%=      5-min Rain = 0
KCH1 131017Z 08002KT 06/06 A2968 RMK A01 T00640063  RH  099%=      5-min Rain = 0
KCH1 131018Z 08002KT 06/06 A2968 RMK A01 T00640063  RH  099%=      5-min Rain = 0
KCH1 131019Z 06002KT 06/06 A2968 RMK A01 T00640063  RH  099%=      5-min Rain = 0
KCH1 131020Z 08001KT 06/06 A2968 RMK A01 T00640064  RH  100%=      5-min Rain = 0
KCH1 131021Z 07001KT 06/06 A2968 RMK A01 T00640063  RH  100%=      5-min Rain = 0
KCH1 131022Z 10001KT 06/06 A2968 RMK A01 T00640063  RH  100%=      5-min Rain = 0
KCH1 131023Z 11000KT 06/06 A2968 RMK A01 T00640063  RH  100%=      5-min Rain = 0
KCH1 131024Z 10000KT 06/06 A2968 RMK A01 T00640064  RH  100%=      5-min Rain = 0
KCH1 131025Z 12000KT 06/06 A2968 RMK A01 T00640064  RH  100%=      5-min Rain = 0
KCH1 131026Z 10001KT 06/06 A2968 RMK A01 T00630062  RH  100%=      5-min Rain = 0
KCH1 131027Z 12001KT 06/06 A2968 RMK A01 T00610060  RH  099%=      5-min Rain = 0
KCH1 131028Z 12001KT 06/06 A2968 RMK A01 T00600059  RH  099%=      5-min Rain = 0
KCH1 131029Z 13001KT 06/06 A2968 RMK A01 T00600059  RH  100%=      5-min Rain = 0
KCH1 131030Z 11001KT 06/06 A2968 RMK A01 T00610061  RH  100%=      5-min Rain = 0
KCH1 131031Z 11001KT 06/06 A2968 RMK A01 T00620062  RH  100%=      5-min Rain = 0
KCH1 131032Z 16002KT 06/06 A2968 RMK A01 T00630063  RH  100%=      5-min Rain = 0
KCH1 131033Z 14001KT 06/06 A2968 RMK A01 T00630063  RH  100%=      5-min Rain = 0
KCH1 131034Z 14002KT 06/06 A2968 RMK A01 T00620062  RH  100%=      5-min Rain = 0
KCH1 131035Z 16002KT 06/06 A2968 RMK A01 T00620061  RH  100%=      5-min Rain = 0
KCH1 131036Z 15001KT 06/06 A2968 RMK A01 T00620061  RH  100%=      5-min Rain = 0
KCH1 131037Z 15001KT 06/06 A2968 RMK A01 T00620062  RH  100%=      5-min Rain = 0
KCH1 131038Z 16001KT 06/06 A2968 RMK A01 T00620062  RH  100%=      5-min Rain = 0
KCH1 131039Z 16001KT 06/06 A2968 RMK A01 T00620062  RH  100%=      5-min Rain = 0
KCH1 131040Z 18002KT 06/06 A2968 RMK A01 T00620062  RH  100%=      5-min Rain = 0
KCH1 131041Z 18001KT 06/06 A2968 RMK A01 T00630063  RH  100%=      5-min Rain = 0
KCH1 131042Z 19001KT 06/06 A2968 RMK A01 T00640064  RH  100%=      5-min Rain = 0
KCH1 131043Z 19001KT 07/07 A2968 RMK A01 T00650065  RH  100%=      5-min Rain = 0
KCH1 131044Z 20002KT 07/07 A2968 RMK A01 T00660066  RH  100%=      5-min Rain = 0
KCH1 131045Z 18002KT 07/07 A2968 RMK A01 T00660066  RH  100%=      5-min Rain = 0
KCH1 131046Z 20002KT 07/07 A2968 RMK A01 T00670067  RH  100%=      5-min Rain = 0
KCH1 131047Z 21002KT 07/07 A2968 RMK A01 T00650065  RH  100%=      5-min Rain = 0
KCH1 131048Z 21001KT 07/07 A2968 RMK A01 T00650065  RH  100%=      5-min Rain = 0
KCH1 131049Z 20002KT 06/06 A2968 RMK A01 T00640064  RH  100%=      5-min Rain = 0
KCH1 131050Z 22002KT 06/06 A2968 RMK A01 T00620062  RH  100%=      5-min Rain = 0
KCH1 131051Z 21002KT 06/06 A2968 RMK A01 T00630063  RH  100%=      5-min Rain = 0
KCH1 131052Z 20002KT 06/06 A2968 RMK A01 T00640064  RH  100%=      5-min Rain = 0
KCH1 131053Z 20003KT 06/06 A2968 RMK A01 T00640064  RH  100%=      5-min Rain = 0
KCH1 131054Z 20003KT 06/06 A2967 RMK A01 T00630063  RH  100%=      5-min Rain = 0
KCH1 131055Z 20003KT 06/06 A2967 RMK A01 T00630063  RH  100%=      5-min Rain = 0
KCH1 131056Z 20003KT 06/06 A2967 RMK A01 T00630063  RH  100%=      5-min Rain = 0
KCH1 131057Z 20003KT 06/06 A2967 RMK A01 T00630063  RH  100%=      5-min Rain = 0
KCH1 131058Z 20004KT 06/06 A2967 RMK A01 T00630063  RH  100%=      5-min Rain = 0
KCH1 131059Z 21003KT 06/06 A2967 RMK A01 T00620062  RH  100%=      5-min Rain = 0
KCH1 131100Z 21003KT 06/06 A2967 RMK A01 T00620062  RH  100%=      5-min Rain = 0
KCH1 131101Z 21003KT 06/06 A2967 RMK A01 T00630063  RH  100%=      5-min Rain = 0
KCH1 131102Z 21003KT 07/07 A2967 RMK A01 T00650065  RH  100%=      5-min Rain = 0
KCH1 131103Z 21002KT 07/07 A2967 RMK A01 T00670067  RH  100%=      5-min Rain = 0
KCH1 131104Z 20002KT 06/06 A2967 RMK A01 T00630063  RH  100%=      5-min Rain = 0
KCH1 131105Z 20002KT 06/06 A2967 RMK A01 T00600060  RH  100%=      5-min Rain = 0
KCH1 131106Z 21002KT 06/06 A2967 RMK A01 T00580057  RH  100%=      5-min Rain = 0
KCH1 131107Z 21002KT 06/06 A2967 RMK A01 T00570057  RH  100%=      5-min Rain = 0
KCH1 131108Z 22002KT 06/06 A2968 RMK A01 T00560056  RH  100%=      5-min Rain = 0
KCH1 131109Z 23002KT 06/06 A2968 RMK A01 T00560055  RH  100%=      5-min Rain = 0
KCH1 131110Z 23002KT 06/06 A2968 RMK A01 T00550055  RH  100%=      5-min Rain = 0
KCH1 131111Z 22003KT 06/06 A2968 RMK A01 T00550055  RH  100%=      5-min Rain = 0
KCH1 131112Z 23004KT 06/06 A2968 RMK A01 T00560056  RH  100%=      5-min Rain = 0
KCH1 131113Z 23004KT 06/06 A2968 RMK A01 T00600060  RH  100%=      5-min Rain = 0
KCH1 131114Z 23004KT 06/06 A2968 RMK A01 T00630063  RH  100%=      5-min Rain = 0
KCH1 131115Z 23004KT 07/07 A2968 RMK A01 T00660066  RH  100%=      5-min Rain = 0
KCH1 131116Z 23004KT 07/07 A2968 RMK A01 T00680068  RH  100%=      5-min Rain = 0
KCH1 131117Z 23005KT 07/07 A2967 RMK A01 T00690069  RH  100%=      5-min Rain = 0
KCH1 131118Z 23004KT 07/07 A2967 RMK A01 T00700070  RH  100%=      5-min Rain = 0
KCH1 131119Z 23004KT 07/07 A2967 RMK A01 T00710071  RH  100%=      5-min Rain = 0
KCH1 131120Z 23004KT 07/07 A2967 RMK A01 T00720072  RH  100%=      5-min Rain = 0
KCH1 131121Z 23005KT 07/07 A2967 RMK A01 T00720072  RH  100%=      5-min Rain = 0
KCH1 131122Z 23004KT 07/07 A2967 RMK A01 T00730073  RH  100%=      5-min Rain = 0
KCH1 131123Z 23004KT 07/07 A2967 RMK A01 T00740074  RH  100%=      5-min Rain = 0
KCH1 131124Z 22004KT 07/07 A2967 RMK A01 T00740074  RH  100%=      5-min Rain = 0
KCH1 131125Z 23004KT 08/08 A2967 RMK A01 T00750075  RH  100%=      5-min Rain = 0
KCH1 131126Z 23004KT 08/08 A2967 RMK A01 T00750075  RH  100%=      5-min Rain = 0
KCH1 131127Z 23003KT 08/08 A2967 RMK A01 T00760076  RH  100%=      5-min Rain = 0
KCH1 131128Z 24004KT 08/08 A2967 RMK A01 T00760075  RH  100%=      5-min Rain = 0
KCH1 131129Z 23004KT 08/08 A2967 RMK A01 T00760076  RH  100%=      5-min Rain = 0
KCH1 131130Z 23004KT 08/08 A2967 RMK A01 T00770076  RH  099%=      5-min Rain = 0
KCH1 131131Z 23004KT 08/08 A2967 RMK A01 T00770076  RH  099%=      5-min Rain = 0
KCH1 131132Z 23004KT 08/08 A2967 RMK A01 T00770075  RH  099%=      5-min Rain = 0
KCH1 131133Z 24004KT 08/08 A2967 RMK A01 T00770075  RH  099%=      5-min Rain = 0
KCH1 131134Z 24004KT 08/08 A2967 RMK A01 T00780075  RH  098%=      5-min Rain = 0
KCH1 131135Z 23004KT 08/07 A2967 RMK A01 T00780074  RH  098%=      5-min Rain = 0
KCH1 131136Z 24004KT 08/07 A2967 RMK A01 T00780074  RH  097%=      5-min Rain = 0
KCH1 131137Z 24004KT 08/07 A2966 RMK A01 T00780074  RH  097%=      5-min Rain = 0
KCH1 131138Z 24004KT 08/07 A2966 RMK A01 T00780073  RH  097%=      5-min Rain = 0
KCH1 131139Z 23003KT 08/07 A2966 RMK A01 T00780073  RH  096%=      5-min Rain = 0
KCH1 131140Z 23004KT 08/07 A2967 RMK A01 T00790073  RH  096%=      5-min Rain = 0
KCH1 131141Z 24004KT 08/07 A2966 RMK A01 T00790072  RH  095%=      5-min Rain = 0
KCH1 131142Z 23002KT 08/07 A2966 RMK A01 T00790071  RH  095%=      5-min Rain = 0
KCH1 131143Z 24003KT 08/07 A2966 RMK A01 T00800070  RH  094%=      5-min Rain = 0
KCH1 131144Z 26003KT 07/06 A2967 RMK A01 T00730056  RH  089%=      5-min Rain = 0
KCH1 131145Z 26003KT 06/04 A2967 RMK A01 T00630039  RH  085%=      5-min Rain = 0
KCH1 131146Z 28002KT 06/04 A2967 RMK A01 T00570039  RH  088%=      5-min Rain = 0
KCH1 131147Z 32002KT 06/05 A2967 RMK A01 T00570045  RH  092%=      5-min Rain = 0
KCH1 131148Z 35002KT 06/05 A2967 RMK A01 T00560047  RH  093%=      5-min Rain = 0
KCH1 131149Z 01003KT 06/05 A2967 RMK A01 T00560048  RH  095%=      5-min Rain = 0
KCH1 131150Z 02003KT 06/05 A2967 RMK A01 T00560051  RH  096%=      5-min Rain = 0
KCH1 131151Z 01003KT 06/05 A2967 RMK A01 T00570053  RH  097%=      5-min Rain = 0
KCH1 131152Z 01003KT 06/06 A2967 RMK A01 T00580055  RH  098%=      5-min Rain = 0
KCH1 131153Z 35003KT 06/06 A2967 RMK A01 T00590055  RH  098%=      5-min Rain = 0
KCH1 131154Z 34003KT 06/06 A2967 RMK A01 T00600057  RH  098%=      5-min Rain = 0
KCH1 131155Z 32002KT 06/06 A2968 RMK A01 T00610058  RH  098%=      5-min Rain = 0
KCH1 131156Z 31002KT 06/06 A2968 RMK A01 T00610059  RH  099%=      5-min Rain = 0
KCH1 131157Z 29002KT 06/06 A2968 RMK A01 T00620060  RH  099%=      5-min Rain = 0
KCH1 131158Z 28003KT 06/06 A2968 RMK A01 T00630062  RH  099%=      5-min Rain = 0
KCH1 131159Z 28003KT 07/06 A2968 RMK A01 T00650063  RH  099%=      5-min Rain = 0
KCH1 131200Z 28004KT 07/06 A2968 RMK A01 T00660064  RH  099%=      5-min Rain = 0
KCH1 131201Z 28004KT 07/07 A2968 RMK A01 T00680066  RH  099%=      5-min Rain = 0
KCH1 131202Z 28004KT 07/07 A2968 RMK A01 T00690067  RH  099%=      5-min Rain = 0
KCH1 131203Z 28004KT 07/07 A2968 RMK A01 T00700068  RH  099%=      5-min Rain = 0
KCH1 131204Z 27005KT 07/07 A2968 RMK A01 T00720070  RH  098%=      5-min Rain = 0
KCH1 131205Z 28004KT 07/07 A2968 RMK A01 T00740071  RH  098%=      5-min Rain = 0
KCH1 131206Z 28005KT 08/07 A2968 RMK A01 T00760071  RH  097%=      5-min Rain = 0
KCH1 131207Z 28005KT 08/07 A2969 RMK A01 T00780072  RH  096%=      5-min Rain = 0
KCH1 131208Z 29004KT 08/07 A2969 RMK A01 T00800073  RH  095%=      5-min Rain = 0
KCH1 131209Z 28005KT 08/07 A2969 RMK A01 T00820073  RH  094%=      5-min Rain = 0
KCH1 131210Z 29005KT 08/07 A2969 RMK A01 T00830073  RH  093%=      5-min Rain = 0
KCH1 131211Z 28006KT 08/07 A2969 RMK A01 T00830072  RH  092%=      5-min Rain = 0
KCH1 131212Z 29005KT 08/07 A2969 RMK A01 T00840072  RH  092%=      5-min Rain = 0
KCH1 131213Z 28004KT 08/07 A2969 RMK A01 T00840072  RH  092%=      5-min Rain = 0
KCH1 131214Z 29005KT 09/07 A2969 RMK A01 T00850072  RH  092%=      5-min Rain = 0
KCH1 131215Z 28005KT 08/07 A2969 RMK A01 T00840072  RH  092%=      5-min Rain = 0
KCH1 131216Z 28004KT 09/07 A2969 RMK A01 T00850072  RH  092%=      5-min Rain = 0
KCH1 131217Z 28004KT 08/07 A2969 RMK A01 T00840071  RH  091%=      5-min Rain = 0
KCH1 131218Z 28005KT 08/07 A2969 RMK A01 T00830070  RH  091%=      5-min Rain = 0
KCH1 131219Z 28005KT 08/07 A2969 RMK A01 T00830070  RH  091%=      5-min Rain = 0
KCH1 131220Z 28005KT 08/07 A2969 RMK A01 T00840070  RH  091%=      5-min Rain = 0
KCH1 131221Z 28004KT 08/07 A2969 RMK A01 T00840069  RH  091%=      5-min Rain = 0
KCH1 131222Z 29005KT 08/07 A2969 RMK A01 T00840069  RH  091%=      5-min Rain = 0
KCH1 131223Z 29005KT 08/07 A2969 RMK A01 T00840069  RH  091%=      5-min Rain = 0
KCH1 131224Z 28006KT 08/07 A2969 RMK A01 T00840069  RH  090%=      5-min Rain = 0
KCH1 131225Z 28006KT 08/07 A2969 RMK A01 T00840069  RH  090%=      5-min Rain = 0
KCH1 131226Z 27007KT 09/07 A2969 RMK A01 T00860069  RH  089%=      5-min Rain = 0
KCH1 131227Z 27005KT 09/07 A2968 RMK A01 T00870068  RH  088%=      5-min Rain = 0
KCH1 131228Z 26005KT 09/07 A2968 RMK A01 T00880068  RH  087%=      5-min Rain = 0
KCH1 131229Z 28008KT 09/07 A2969 RMK A01 T00880067  RH  087%=      5-min Rain = 0
KCH1 131230Z 28011KT 09/07 A2969 RMK A01 T00900067  RH  086%=      5-min Rain = 0
KCH1 131231Z 29009KT 09/07 A2969 RMK A01 T00920067  RH  084%=      5-min Rain = 0
KCH1 131232Z 29009KT 09/07 A297 RMK A01 T00940066  RH  083%=      5-min Rain = 0
KCH1 131233Z 30010G15KT 09/07 A297 RMK A01 T00940065  RH  083%=      5-min Rain = 0
KCH1 131234Z 29008KT 09/07 A297 RMK A01 T00940065  RH  082%=      5-min Rain = 0
KCH1 131235Z 30008KT 09/06 A297 RMK A01 T00940064  RH  082%=      5-min Rain = 0
KCH1 131236Z 29008G13KT 10/06 A297 RMK A01 T00950064  RH  081%=      5-min Rain = 0
KCH1 131237Z 29008G14KT 10/06 A297 RMK A01 T00960064  RH  080%=      5-min Rain = 0
KCH1 131238Z 29010KT 10/06 A297 RMK A01 T00970063  RH  079%=      5-min Rain = 0
KCH1 131239Z 29010KT 10/06 A297 RMK A01 T00990062  RH  078%=      5-min Rain = 0
KCH1 131240Z 30007G12KT 10/06 A297 RMK A01 T01000062  RH  078%=      5-min Rain = 0
KCH1 131241Z 29008KT 10/06 A297 RMK A01 T01000062  RH  077%=      5-min Rain = 0
KCH1 131242Z 30008KT 10/06 A297 RMK A01 T01000061  RH  077%=      5-min Rain = 0
KCH1 131243Z 30008KT 10/06 A297 RMK A01 T01000060  RH  076%=      5-min Rain = 0
KCH1 131244Z 29013KT 10/06 A297 RMK A01 T01010060  RH  076%=      5-min Rain = 0
KCH1 131245Z 29012KT 10/06 A297 RMK A01 T01020060  RH  075%=      5-min Rain = 0
KCH1 131246Z 30012KT 10/06 A297 RMK A01 T01020059  RH  075%=      5-min Rain = 0
KCH1 131247Z 29010KT 10/06 A297 RMK A01 T01020059  RH  074%=      5-min Rain = 0
KCH1 131248Z 29012G18KT 10/06 A297 RMK A01 T01020059  RH  074%=      5-min Rain = 0
KCH1 131249Z 29009KT 10/06 A297 RMK A01 T01020058  RH  074%=      5-min Rain = 0
KCH1 131250Z 29009KT 10/06 A297 RMK A01 T01020059  RH  075%=      5-min Rain = 0
KCH1 131251Z 30009G17KT 10/06 A297 RMK A01 T01010058  RH  075%=      5-min Rain = 0
KCH1 131252Z 30013KT 10/06 A297 RMK A01 T01010058  RH  075%=      5-min Rain = 0
KCH1 131253Z 30013KT 10/06 A2971 RMK A01 T01010058  RH  074%=      5-min Rain = 0
KCH1 131254Z 30016KT 10/06 A2971 RMK A01 T01020057  RH  074%=      5-min Rain = 0
KCH1 131255Z 30013G18KT 10/06 A2971 RMK A01 T01030057  RH  073%=      5-min Rain = 0
KCH1 131256Z 29009KT 10/06 A2971 RMK A01 T01040057  RH  073%=      5-min Rain = 0
KCH1 131257Z 29010G15KT 10/06 A2971 RMK A01 T01020058  RH  074%=      5-min Rain = 0
KCH1 131258Z 29014KT 10/06 A2971 RMK A01 T01010057  RH  074%=      5-min Rain = 0
KCH1 131259Z 30012KT 10/06 A2971 RMK A01 T01020056  RH  073%=      5-min Rain = 0
KCH1 131300Z 30013KT 10/06 A2971 RMK A01 T01020056  RH  073%=      5-min Rain = 0
KCH1 131301Z 29011KT 10/06 A2971 RMK A01 T01030055  RH  072%=      5-min Rain = 0
KCH1 131302Z 29013G19KT 10/06 A2971 RMK A01 T01030056  RH  073%=      5-min Rain = 0
KCH1 131303Z 29013G18KT 10/06 A2971 RMK A01 T01030055  RH  072%=      5-min Rain = 0
KCH1 131304Z 29011KT 10/06 A2971 RMK A01 T01020056  RH  073%=      5-min Rain = 0
KCH1 131305Z 30012KT 10/06 A2971 RMK A01 T01020055  RH  073%=      5-min Rain = 0
KCH1 131306Z 30011KT 10/06 A2971 RMK A01 T01020056  RH  073%=      5-min Rain = 0
KCH1 131307Z 30015G20KT 10/06 A2971 RMK A01 T01010056  RH  073%=      5-min Rain = 0
KCH1 131308Z 29013KT 10/06 A2971 RMK A01 T01010055  RH  073%=      5-min Rain = 0
KCH1 131309Z 29013G18KT 10/06 A2971 RMK A01 T01010055  RH  073%=      5-min Rain = 0
KCH1 131310Z 30015KT 10/05 A2971 RMK A01 T01010054  RH  073%=      5-min Rain = 0
KCH1 131311Z 30010G15KT 10/05 A2971 RMK A01 T01010054  RH  073%=      5-min Rain = 0
KCH1 131312Z 29013KT 10/05 A2971 RMK A01 T01010054  RH  073%=      5-min Rain = 0
KCH1 131313Z 30013KT 10/05 A2971 RMK A01 T01000054  RH  073%=      5-min Rain = 0
KCH1 131314Z 30013KT 10/05 A2971 RMK A01 T01000054  RH  073%=      5-min Rain = 0
KCH1 131315Z 29013KT 10/05 A2971 RMK A01 T01000054  RH  073%=      5-min Rain = 0
KCH1 131316Z 30013KT 10/05 A2972 RMK A01 T01000053  RH  073%=      5-min Rain = 0
KCH1 131317Z 31012KT 10/05 A2971 RMK A01 T00990053  RH  073%=      5-min Rain = 0
KCH1 131318Z 30012KT 10/05 A2972 RMK A01 T01000053  RH  073%=      5-min Rain = 0
KCH1 131319Z 30012KT 10/05 A2972 RMK A01 T00990053  RH  073%=      5-min Rain = 0
KCH1 131320Z 30012KT 10/05 A2972 RMK A01 T00990052  RH  073%=      5-min Rain = 0
KCH1 131321Z 30014KT 10/05 A2972 RMK A01 T00990053  RH  073%=      5-min Rain = 0
KCH1 131322Z 31014KT 10/05 A2972 RMK A01 T00990052  RH  073%=      5-min Rain = 0
KCH1 131323Z 30010KT 10/05 A2972 RMK A01 T00990052  RH  073%=      5-min Rain = 0
KCH1 131324Z 31011KT 10/05 A2972 RMK A01 T00990053  RH  073%=      5-min Rain = 0
KCH1 131325Z 30012KT 10/05 A2972 RMK A01 T00980053  RH  073%=      5-min Rain = 0
KCH1 131326Z 30010G17KT 10/05 A2972 RMK A01 T00980053  RH  074%=      5-min Rain = 0
KCH1 131327Z 30011KT 10/05 A2972 RMK A01 T00970052  RH  073%=      5-min Rain = 0
KCH1 131328Z 29011G16KT 10/05 A2972 RMK A01 T00970051  RH  073%=      5-min Rain = 0
KCH1 131329Z 31015G21KT 10/05 A2972 RMK A01 T00970051  RH  073%=      5-min Rain = 0
KCH1 131330Z 30011KT 10/05 A2973 RMK A01 T00980051  RH  073%=      5-min Rain = 0
KCH1 131331Z 30015KT 10/05 A2973 RMK A01 T00980051  RH  073%=      5-min Rain = 0
KCH1 131332Z 31015KT 10/05 A2973 RMK A01 T00980050  RH  072%=      5-min Rain = 0
KCH1 131333Z 30010G15KT 10/05 A2973 RMK A01 T00990050  RH  072%=      5-min Rain = 0
KCH1 131334Z 31013G22KT 10/05 A2973 RMK A01 T00990050  RH  072%=      5-min Rain = 0
KCH1 131335Z 31018KT 10/05 A2973 RMK A01 T00980049  RH  072%=      5-min Rain = 0
KCH1 131336Z 31013G19KT 10/05 A2973 RMK A01 T00980049  RH  071%=      5-min Rain = 0
KCH1 131337Z 30011KT 10/05 A2973 RMK A01 T00980050  RH  072%=      5-min Rain = 0
KCH1 131338Z 31013KT 10/05 A2973 RMK A01 T00980050  RH  072%=      5-min Rain = 0
KCH1 131339Z 31011KT 10/05 A2973 RMK A01 T00980049  RH  072%=      5-min Rain = 0
KCH1 131340Z 31011KT 10/05 A2973 RMK A01 T00980050  RH  072%=      5-min Rain = 0
KCH1 131341Z 31015G23KT 10/05 A2973 RMK A01 T00970050  RH  072%=      5-min Rain = 0
KCH1 131342Z 30016G22KT 10/05 A2973 RMK A01 T00970048  RH  071%=      5-min Rain = 0
KCH1 131343Z 31015G20KT 10/05 A2973 RMK A01 T00970048  RH  071%=      5-min Rain = 0
KCH1 131344Z 31013G19KT 10/05 A2973 RMK A01 T00970048  RH  071%=      5-min Rain = 0
KCH1 131345Z 31010G15KT 10/05 A2973 RMK A01 T00960047  RH  071%=      5-min Rain = 0
KCH1 131346Z 31013G18KT 10/05 A2973 RMK A01 T00950047  RH  072%=      5-min Rain = 0
KCH1 131347Z 31012KT 10/05 A2973 RMK A01 T00950047  RH  072%=      5-min Rain = 0
KCH1 131348Z 31013G18KT 09/05 A2973 RMK A01 T00940047  RH  072%=      5-min Rain = 0
KCH1 131349Z 32013KT 09/05 A2974 RMK A01 T00940047  RH  072%=      5-min Rain = 0
KCH1 131350Z 33013KT 09/05 A2974 RMK A01 T00940047  RH  072%=      5-min Rain = 0
KCH1 131351Z 32016G26KT 09/05 A2974 RMK A01 T00930045  RH  072%=      5-min Rain = 0
KCH1 131352Z 34020G26KT 09/04 A2974 RMK A01 T00920038  RH  069%=      5-min Rain = 0
KCH1 131353Z 33015G21KT 09/04 A2974 RMK A01 T00900035  RH  069%=      5-min Rain = 0
KCH1 131354Z 33015G24KT 09/03 A2975 RMK A01 T00880033  RH  069%=      5-min Rain = 0
KCH1 131355Z 32017G23KT 09/03 A2975 RMK A01 T00860031  RH  068%=      5-min Rain = 0
KCH1 131356Z 33015KT 09/03 A2975 RMK A01 T00850030  RH  068%=      5-min Rain = 0
KCH1 131357Z 33016G23KT 08/03 A2975 RMK A01 T00830030  RH  069%=      5-min Rain = 0
KCH1 131358Z 34017KT 08/03 A2975 RMK A01 T00820029  RH  069%=      5-min Rain = 0
KCH1 131359Z 34017KT 08/03 A2975 RMK A01 T00810029  RH  070%=      5-min Rain = 0
KCH1 131400Z 34016KT 08/03 A2975 RMK A01 T00800030  RH  071%=      5-min Rain = 0
KCH1 131401Z 33020KT 08/03 A2975 RMK A01 T00780029  RH  071%=      5-min Rain = 0
KCH1 131402Z 34015G21KT 08/03 A2975 RMK A01 T00770030  RH  072%=      5-min Rain = 0
KCH1 131403Z 34019G25KT 08/03 A2976 RMK A01 T00760030  RH  073%=      5-min Rain = 0
KCH1 131404Z 34019G26KT 08/03 A2976 RMK A01 T00750029  RH  073%=      5-min Rain = 0
KCH1 131405Z 35017G27KT 07/03 A2976 RMK A01 T00740030  RH  074%=      5-min Rain = 0
KCH1 131406Z 33019G28KT 07/03 A2976 RMK A01 T00730030  RH  074%=      5-min Rain = 0
KCH1 131407Z 34022KT 07/03 A2976 RMK A01 T00720030  RH  075%=      5-min Rain = 0
KCH1 131408Z 34018G23KT 07/03 A2976 RMK A01 T00710030  RH  075%=      5-min Rain = 0
KCH1 131409Z 33015KT 07/03 A2976 RMK A01 T00710031  RH  076%=      5-min Rain = 0
KCH1 131410Z 34017KT 07/03 A2976 RMK A01 T00700031  RH  076%=      5-min Rain = 0
KCH1 131411Z 33011KT 07/03 A2976 RMK A01 T00700032  RH  077%=      5-min Rain = 0
KCH1 131412Z 34012G19KT 07/03 A2976 RMK A01 T00700032  RH  077%=      5-min Rain = 0
KCH1 131413Z 34017G24KT 07/03 A2976 RMK A01 T00690032  RH  077%=      5-min Rain = 0
KCH1 131414Z 33016G21KT 07/03 A2976 RMK A01 T00700033  RH  077%=      5-min Rain = 0
KCH1 131415Z 34015G20KT 07/03 A2976 RMK A01 T00690032  RH  077%=      5-min Rain = 0
KCH1 131416Z 33015G23KT 07/03 A2976 RMK A01 T00690033  RH  077%=      5-min Rain = 0
KCH1 131417Z 33015G21KT 07/03 A2976 RMK A01 T00690033  RH  078%=      5-min Rain = 0
KCH1 131418Z 34015G22KT 07/03 A2976 RMK A01 T00690033  RH  078%=      5-min Rain = 0
KCH1 131419Z 34015G22KT 07/03 A2976 RMK A01 T00690034  RH  078%=      5-min Rain = 0
KCH1 131420Z 33016G22KT 07/03 A2976 RMK A01 T00690034  RH  078%=      5-min Rain = 0
KCH1 131421Z 34012G17KT 07/03 A2976 RMK A01 T00690034  RH  078%=      5-min Rain = 0
KCH1 131422Z 34011G17KT 07/03 A2976 RMK A01 T00690034  RH  078%=      5-min Rain = 0
KCH1 131423Z 33013KT 07/04 A2976 RMK A01 T00690035  RH  079%=      5-min Rain = 0
KCH1 131424Z 34012KT 07/04 A2977 RMK A01 T00690035  RH  079%=      5-min Rain = 0
KCH1 131425Z 34011G19KT 07/04 A2977 RMK A01 T00690035  RH  079%=      5-min Rain = 0
KCH1 131426Z 33012KT 07/04 A2977 RMK A01 T00690036  RH  079%=      5-min Rain = 0
KCH1 131427Z 34013G18KT 07/04 A2977 RMK A01 T00690036  RH  079%=      5-min Rain = 0
KCH1 131428Z 35016KT 07/04 A2977 RMK A01 T00690036  RH  080%=      5-min Rain = 0
KCH1 131429Z 35013KT 07/04 A2977 RMK A01 T00690036  RH  080%=      5-min Rain = 0
KCH1 131430Z 34014KT 07/04 A2977 RMK A01 T00690037  RH  080%=      5-min Rain = 0
KCH1 131431Z 35015G20KT 07/04 A2977 RMK A01 T00690037  RH  080%=      5-min Rain = 0
KCH1 131432Z 35012G19KT 07/04 A2977 RMK A01 T00690038  RH  080%=      5-min Rain = 0
KCH1 131433Z 35010KT 07/04 A2977 RMK A01 T00690038  RH  081%=      5-min Rain = 0
KCH1 131434Z 35012KT 07/04 A2977 RMK A01 T00690038  RH  081%=      5-min Rain = 0
KCH1 131435Z 34009KT 07/04 A2977 RMK A01 T00680039  RH  081%=      5-min Rain = 0
KCH1 131436Z 34014KT 07/04 A2977 RMK A01 T00680039  RH  082%=      5-min Rain = 0
KCH1 131437Z 34011G18KT 07/04 A2977 RMK A01 T00680039  RH  082%=      5-min Rain = 0
KCH1 131438Z 35008KT 07/04 A2978 RMK A01 T00690039  RH  082%=      5-min Rain = 0
KCH1 131439Z 34008KT 07/04 A2978 RMK A01 T00690040  RH  082%=      5-min Rain = 0
KCH1 131440Z 34012G23KT 07/04 A2978 RMK A01 T00680040  RH  082%=      5-min Rain = 0
KCH1 131441Z 34013KT 07/04 A2978 RMK A01 T00690040  RH  082%=      5-min Rain = 0
KCH1 131442Z 34014KT 07/04 A2978 RMK A01 T00690040  RH  082%=      5-min Rain = 0
KCH1 131443Z 34012KT 07/04 A2978 RMK A01 T00690040  RH  082%=      5-min Rain = 0
KCH1 131444Z 33010G15KT 07/04 A2979 RMK A01 T00690040  RH  082%=      5-min Rain = 0
KCH1 131445Z 33008KT 07/04 A2979 RMK A01 T00690040  RH  082%=      5-min Rain = 0
KCH1 131446Z 33009KT 07/04 A2979 RMK A01 T00700041  RH  082%=      5-min Rain = 0
KCH1 131447Z 34005KT 07/04 A2979 RMK A01 T00700041  RH  082%=      5-min Rain = 0
KCH1 131448Z 33004KT 07/04 A2979 RMK A01 T00700041  RH  082%=      5-min Rain = 0
KCH1 131449Z 34009KT 07/04 A298 RMK A01 T00700042  RH  082%=      5-min Rain = 0
KCH1 131450Z 34010KT 07/04 A298 RMK A01 T00710042  RH  082%=      5-min Rain = 0
KCH1 131451Z 31011G17KT 07/04 A298 RMK A01 T00710042  RH  082%=      5-min Rain = 0
KCH1 131452Z 32009KT 07/04 A298 RMK A01 T00720042  RH  081%=      5-min Rain = 0
KCH1 131453Z 33008G14KT 07/04 A298 RMK A01 T00720041  RH  081%=      5-min Rain = 0
KCH1 131454Z 33013KT 07/04 A298 RMK A01 T00720042  RH  081%=      5-min Rain = 0
KCH1 131455Z 32012KT 07/04 A298 RMK A01 T00720041  RH  081%=      5-min Rain = 0
KCH1 131456Z 34008KT 07/04 A298 RMK A01 T00720042  RH  081%=      5-min Rain = 0
KCH1 131457Z 34008G13KT 07/04 A298 RMK A01 T00720042  RH  081%=      5-min Rain = 0
KCH1 131458Z 34010KT 07/04 A2979 RMK A01 T00720041  RH  081%=      5-min Rain = 0
KCH1 131459Z 35007KT 07/04 A2979 RMK A01 T00730042  RH  081%=      5-min Rain = 0
KCH1 131500Z 35015G20KT 07/04 A2979 RMK A01 T00730042  RH  081%=      5-min Rain = 0
KCH1 131501Z 34015G20KT 07/04 A2979 RMK A01 T00730042  RH  081%=      5-min Rain = 0
KCH1 131502Z 35011KT 07/04 A2979 RMK A01 T00730042  RH  080%=      5-min Rain = 0
KCH1 131503Z 35008KT 07/04 A2979 RMK A01 T00730042  RH  080%=      5-min Rain = 0
KCH1 131504Z 35004KT 07/04 A2979 RMK A01 T00740043  RH  081%=      5-min Rain = 0
KCH1 131505Z 35009KT 07/04 A2979 RMK A01 T00740043  RH  081%=      5-min Rain = 0
KCH1 131506Z 34008KT 07/04 A2979 RMK A01 T00740043  RH  081%=      5-min Rain = 0
KCH1 131507Z 35008KT 07/04 A2979 RMK A01 T00740043  RH  081%=      5-min Rain = 0
KCH1 131508Z 34010KT 07/04 A2979 RMK A01 T00740044  RH  081%=      5-min Rain = 0
KCH1 131509Z 36011KT 07/04 A2979 RMK A01 T00740043  RH  081%=      5-min Rain = 0
KCH1 131510Z 34006KT 07/04 A2979 RMK A01 T00740044  RH  081%=      5-min Rain = 0
KCH1 131511Z 35012KT 07/04 A298 RMK A01 T00740044  RH  081%=      5-min Rain = 0
KCH1 131512Z 34011KT 07/04 A298 RMK A01 T00740043  RH  081%=      5-min Rain = 0
KCH1 131513Z 35011KT 07/04 A298 RMK A01 T00740043  RH  081%=      5-min Rain = 0
KCH1 131514Z 34010KT 08/04 A298 RMK A01 T00750044  RH  081%=      5-min Rain = 0
KCH1 131515Z 35011KT 08/04 A298 RMK A01 T00750044  RH  081%=      5-min Rain = 0
KCH1 131516Z 33010KT 07/04 A2979 RMK A01 T00740044  RH  081%=      5-min Rain = 0
KCH1 131517Z 35014KT 07/04 A2979 RMK A01 T00740044  RH  081%=      5-min Rain = 0
KCH1 131518Z 34012G18KT 07/04 A2979 RMK A01 T00740044  RH  081%=      5-min Rain = 0
KCH1 131519Z 35010G16KT 07/04 A298 RMK A01 T00740044  RH  081%=      5-min Rain = 0
KCH1 131520Z 34009KT 07/04 A298 RMK A01 T00740044  RH  081%=      5-min Rain = 0
KCH1 131521Z 34007KT 07/04 A298 RMK A01 T00740044  RH  081%=      5-min Rain = 0
KCH1 131522Z 35012KT 07/04 A298 RMK A01 T00740044  RH  081%=      5-min Rain = 0
KCH1 131523Z 33010KT 08/04 A298 RMK A01 T00750044  RH  081%=      5-min Rain = 0
KCH1 131524Z 33010KT 08/04 A298 RMK A01 T00750044  RH  081%=      5-min Rain = 0
KCH1 131525Z 33010G18KT 08/04 A298 RMK A01 T00750044  RH  081%=      5-min Rain = 0
KCH1 131526Z 32011KT 08/05 A298 RMK A01 T00750045  RH  081%=      5-min Rain = 0
KCH1 131527Z 33013G20KT 08/05 A298 RMK A01 T00750045  RH  082%=      5-min Rain = 0
KCH1 131528Z 33010KT 07/05 A298 RMK A01 T00740045  RH  082%=      5-min Rain = 0
KCH1 131529Z 35007KT 07/05 A298 RMK A01 T00740046  RH  083%=      5-min Rain = 0
KCH1 131530Z 35009KT 07/05 A2981 RMK A01 T00730047  RH  083%=      5-min Rain = 0
KCH1 131531Z 36011KT 07/05 A2981 RMK A01 T00730046  RH  083%=      5-min Rain = 0
KCH1 131532Z 35010KT 07/05 A2981 RMK A01 T00730046  RH  083%=      5-min Rain = 0
KCH1 131533Z 34012G19KT 07/05 A2981 RMK A01 T00720046  RH  083%=      5-min Rain = 0
KCH1 131534Z 34015KT 07/05 A2981 RMK A01 T00720046  RH  083%=      5-min Rain = 0
KCH1 131535Z 34010KT 07/05 A2981 RMK A01 T00710046  RH  084%=      5-min Rain = 0
KCH1 131536Z 35012KT 07/05 A2981 RMK A01 T00710047  RH  085%=      5-min Rain = 0
KCH1 131537Z 34009KT 07/05 A2982 RMK A01 T00700047  RH  085%=      5-min Rain = 0
KCH1 131538Z 34009KT 07/05 A2982 RMK A01 T00690047  RH  086%=      5-min Rain = 0
KCH1 131539Z 34008KT 07/05 A2982 RMK A01 T00690048  RH  086%=      5-min Rain = 0
KCH1 131540Z 32011KT 07/05 A2982 RMK A01 T00690048  RH  087%=      5-min Rain = 0
KCH1 131541Z 32009KT 07/05 A2982 RMK A01 T00690048  RH  087%=      5-min Rain = 0
KCH1 131542Z 31009KT 07/05 A2982 RMK A01 T00680049  RH  088%=      5-min Rain = 0
KCH1 131543Z 34006KT 07/05 A2982 RMK A01 T00680049  RH  088%=      5-min Rain = 0
KCH1 131544Z 32008G13KT 07/05 A2983 RMK A01 T00680050  RH  088%=      5-min Rain = 0
KCH1 131545Z 32008KT 07/05 A2983 RMK A01 T00680050  RH  088%=      5-min Rain = 0
KCH1 131546Z 30007KT 07/05 A2983 RMK A01 T00680049  RH  088%=      5-min Rain = 0
KCH1 131547Z 30010KT 07/05 A2983 RMK A01 T00680049  RH  088%=      5-min Rain = 0
KCH1 131548Z 33011KT 07/05 A2983 RMK A01 T00680048  RH  087%=      5-min Rain = 0
KCH1 131549Z 31010KT 07/05 A2983 RMK A01 T00670048  RH  087%=      5-min Rain = 0
KCH1 131550Z 31010KT 07/05 A2983 RMK A01 T00670049  RH  088%=      5-min Rain = 0
KCH1 131551Z 31010KT 07/05 A2983 RMK A01 T00670048  RH  088%=      5-min Rain = 0
KCH1 131552Z 31016G21KT 07/05 A2983 RMK A01 T00660046  RH  087%=      5-min Rain = 0
KCH1 131553Z 31014KT 07/04 A2984 RMK A01 T00650043  RH  086%=      5-min Rain = 0
KCH1 131554Z 32011KT 06/04 A2984 RMK A01 T00640042  RH  086%=      5-min Rain = 0.01
KCH1 131555Z 31012KT 06/04 A2984 RMK A01 T00620042  RH  087%=      5-min Rain = 0
KCH1 131556Z 31010G15KT 06/04 A2984 RMK A01 T00610040  RH  087%=      5-min Rain = 0
KCH1 131557Z 31012G17KT 06/04 A2984 RMK A01 T00600039  RH  086%=      5-min Rain = 0
KCH1 131558Z 31011KT 06/04 A2984 RMK A01 T00600039  RH  086%=      5-min Rain = 0
KCH1 131559Z 31011G17KT 06/04 A2984 RMK A01 T00590039  RH  087%=      5-min Rain = 0.01
KCH1 131600Z 31012KT 06/04 A2984 RMK A01 T00580038  RH  087%=      5-min Rain = 0
KCH1 131601Z 31008KT 06/04 A2984 RMK A01 T00590039  RH  087%=      5-min Rain = 0
KCH1 131602Z 31008KT 06/04 A2984 RMK A01 T00580039  RH  088%=      5-min Rain = 0
KCH1 131603Z 30009KT 06/04 A2984 RMK A01 T00570040  RH  089%=      5-min Rain = 0.01
KCH1 131604Z 30010KT 06/04 A2984 RMK A01 T00570041  RH  089%=      5-min Rain = 0
KCH1 131605Z 32012KT 06/04 A2984 RMK A01 T00560039  RH  088%=      5-min Rain = 0
KCH1 131606Z 32011KT 06/04 A2984 RMK A01 T00570038  RH  088%=      5-min Rain = 0
KCH1 131607Z 31013KT 06/04 A2984 RMK A01 T00570039  RH  088%=      5-min Rain = 0.01
KCH1 131608Z 32012KT 06/04 A2984 RMK A01 T00560037  RH  088%=      5-min Rain = 0
KCH1 131609Z 31009KT 06/04 A2984 RMK A01 T00560036  RH  087%=      5-min Rain = 0
KCH1 131610Z 32007KT 06/04 A2985 RMK A01 T00560037  RH  088%=      5-min Rain = 0.01
KCH1 131611Z 31006G11KT 06/04 A2985 RMK A01 T00560039  RH  089%=      5-min Rain = 0
KCH1 131612Z 32012KT 06/04 A2984 RMK A01 T00550040  RH  090%=      5-min Rain = 0
KCH1 131613Z 32012KT 06/04 A2985 RMK A01 T00550038  RH  089%=      5-min Rain = 0
KCH1 131614Z 33011KT 06/04 A2984 RMK A01 T00550038  RH  088%=      5-min Rain = 0.01
KCH1 131615Z 34009KT 06/04 A2985 RMK A01 T00550038  RH  089%=      5-min Rain = 0
KCH1 131616Z 32008KT 05/04 A2985 RMK A01 T00540039  RH  090%=      5-min Rain = 0
KCH1 131617Z 34008KT 05/04 A2985 RMK A01 T00540039  RH  090%=      5-min Rain = 0.01
KCH1 131618Z 34009KT 05/04 A2985 RMK A01 T00530039  RH  091%=      5-min Rain = 0
KCH1 131619Z 34011KT 05/04 A2985 RMK A01 T00530039  RH  091%=      5-min Rain = 0
KCH1 131620Z 35009KT 05/04 A2984 RMK A01 T00530039  RH  090%=      5-min Rain = 0.01
KCH1 131621Z 34009KT 05/04 A2984 RMK A01 T00530038  RH  090%=      5-min Rain = 0
KCH1 131622Z 34007KT 05/04 A2985 RMK A01 T00530038  RH  090%=      5-min Rain = 0
KCH1 131623Z 34007KT 05/04 A2985 RMK A01 T00530038  RH  090%=      5-min Rain = 0
KCH1 131624Z 34008KT 05/04 A2985 RMK A01 T00520038  RH  090%=      5-min Rain = 0.01
KCH1 131625Z 35008KT 05/04 A2985 RMK A01 T00520037  RH  090%=      5-min Rain = 0
KCH1 131626Z 34008KT 05/04 A2985 RMK A01 T00520037  RH  090%=      5-min Rain = 0
KCH1 131627Z 34008KT 05/04 A2985 RMK A01 T00520038  RH  091%=      5-min Rain = 0
KCH1 131628Z 34009G14KT 05/04 A2985 RMK A01 T00520038  RH  091%=      5-min Rain = 0.01
KCH1 131629Z 36008KT 05/04 A2985 RMK A01 T00520038  RH  091%=      5-min Rain = 0
KCH1 131630Z 34008KT 05/04 A2985 RMK A01 T00510037  RH  091%=      5-min Rain = 0
KCH1 131631Z 35009KT 05/04 A2985 RMK A01 T00520038  RH  091%=      5-min Rain = 0
KCH1 131632Z 35010KT 05/04 A2985 RMK A01 T00510036  RH  090%=      5-min Rain = 0
KCH1 131633Z 34006KT 05/04 A2985 RMK A01 T00510035  RH  090%=      5-min Rain = 0
KCH1 131634Z 34005KT 05/04 A2985 RMK A01 T00510037  RH  091%=      5-min Rain = 0
KCH1 131635Z 33006KT 05/04 A2985 RMK A01 T00510038  RH  092%=      5-min Rain = 0
KCH1 131636Z 35007KT 05/04 A2985 RMK A01 T00500039  RH  092%=      5-min Rain = 0
KCH1 131637Z 34010KT 05/04 A2985 RMK A01 T00500038  RH  092%=      5-min Rain = 0.01
KCH1 131638Z 35008KT 05/04 A2985 RMK A01 T00500036  RH  091%=      5-min Rain = 0
KCH1 131639Z 35008KT 05/04 A2985 RMK A01 T00500037  RH  091%=      5-min Rain = 0
KCH1 131640Z 36007G14KT 05/04 A2985 RMK A01 T00500037  RH  091%=      5-min Rain = 0
KCH1 131641Z 35007KT 05/04 A2985 RMK A01 T00500036  RH  091%=      5-min Rain = 0.01
KCH1 131642Z 36010KT 05/04 A2985 RMK A01 T00490035  RH  091%=      5-min Rain = 0
KCH1 131643Z 35008KT 05/03 A2985 RMK A01 T00490034  RH  090%=      5-min Rain = 0
KCH1 131644Z 00008KT 05/03 A2985 RMK A01 T00490034  RH  090%=      5-min Rain = 0
KCH1 131645Z 00009KT 05/03 A2985 RMK A01 T00490034  RH  090%=      5-min Rain = 0.01
KCH1 131646Z 35009KT 05/04 A2985 RMK A01 T00490035  RH  091%=      5-min Rain = 0
KCH1 131647Z 00009KT 05/03 A2985 RMK A01 T00480034  RH  090%=      5-min Rain = 0
KCH1 131648Z 36008KT 05/03 A2985 RMK A01 T00480034  RH  090%=      5-min Rain = 0
KCH1 131649Z 36010KT 05/03 A2985 RMK A01 T00480034  RH  091%=      5-min Rain = 0.01
KCH1 131650Z 36009KT 05/03 A2985 RMK A01 T00480034  RH  091%=      5-min Rain = 0
KCH1 131651Z 36011G16KT 05/03 A2985 RMK A01 T00480034  RH  091%=      5-min Rain = 0
KCH1 131652Z 35012KT 05/03 A2985 RMK A01 T00480033  RH  090%=      5-min Rain = 0
KCH1 131653Z 35011KT 05/03 A2985 RMK A01 T00480031  RH  089%=      5-min Rain = 0.01
KCH1 131654Z 36008KT 05/03 A2985 RMK A01 T00480032  RH  089%=      5-min Rain = 0
KCH1 131655Z 00007KT 05/03 A2985 RMK A01 T00480033  RH  090%=      5-min Rain = 0
KCH1 131656Z 01008KT 05/03 A2985 RMK A01 T00480034  RH  091%=      5-min Rain = 0
KCH1 131657Z 35007KT 05/04 A2985 RMK A01 T00480035  RH  091%=      5-min Rain = 0
KCH1 131658Z 36006KT 05/04 A2985 RMK A01 T00480035  RH  091%=      5-min Rain = 0.01
KCH1 131659Z 00006KT 05/04 A2985 RMK A01 T00480035  RH  091%=      5-min Rain = 0
KCH1 131700Z 35007KT 05/04 A2985 RMK A01 T00480036  RH  092%=      5-min Rain = 0
KCH1 131701Z 01009KT 05/04 A2985 RMK A01 T00480036  RH  092%=      5-min Rain = 0
KCH1 131702Z 36010KT 05/03 A2985 RMK A01 T00480034  RH  091%=      5-min Rain = 0
KCH1 131703Z 35009KT 05/03 A2985 RMK A01 T00480032  RH  089%=      5-min Rain = 0
KCH1 131704Z 36010KT 05/03 A2985 RMK A01 T00480031  RH  089%=      5-min Rain = 0
KCH1 131705Z 01007KT 05/03 A2985 RMK A01 T00490032  RH  089%=      5-min Rain = 0
KCH1 131706Z 36007KT 05/03 A2985 RMK A01 T00480034  RH  090%=      5-min Rain = 0
KCH1 131707Z 35007KT 05/04 A2985 RMK A01 T00480035  RH  091%=      5-min Rain = 0.01
KCH1 131708Z 00006KT 05/04 A2985 RMK A01 T00480035  RH  091%=      5-min Rain = 0
KCH1 131709Z 00006KT 05/04 A2985 RMK A01 T00480036  RH  092%=      5-min Rain = 0
KCH1 131710Z 35006KT 05/04 A2985 RMK A01 T00480037  RH  093%=      5-min Rain = 0
KCH1 131711Z 33007G13KT 05/04 A2985 RMK A01 T00470038  RH  093%=      5-min Rain = 0
KCH1 131712Z 34010KT 05/04 A2985 RMK A01 T00470036  RH  093%=      5-min Rain = 0
KCH1 131713Z 34010KT 05/03 A2985 RMK A01 T00470033  RH  091%=      5-min Rain = 0
KCH1 131714Z 34009KT 05/03 A2985 RMK A01 T00460033  RH  091%=      5-min Rain = 0
KCH1 131715Z 35010KT 05/03 A2985 RMK A01 T00460033  RH  091%=      5-min Rain = 0.01
KCH1 131716Z 35010KT 05/03 A2985 RMK A01 T00460032  RH  091%=      5-min Rain = 0
KCH1 131717Z 35010KT 05/03 A2985 RMK A01 T00460031  RH  090%=      5-min Rain = 0
KCH1 131718Z 35011KT 05/03 A2985 RMK A01 T00460031  RH  090%=      5-min Rain = 0
KCH1 131719Z 35010KT 05/03 A2985 RMK A01 T00450031  RH  090%=      5-min Rain = 0
KCH1 131720Z 35012KT 05/03 A2985 RMK A01 T00450030  RH  090%=      5-min Rain = 0
KCH1 131721Z 34010KT 05/03 A2985 RMK A01 T00450030  RH  090%=      5-min Rain = 0
KCH1 131722Z 35010KT 04/03 A2985 RMK A01 T00440030  RH  090%=      5-min Rain = 0
KCH1 131723Z 34010KT 04/03 A2985 RMK A01 T00440030  RH  090%=      5-min Rain = 0.01
KCH1 131724Z 34007KT 04/03 A2985 RMK A01 T00440030  RH  091%=      5-min Rain = 0
KCH1 131725Z 33009KT 04/03 A2985 RMK A01 T00440031  RH  091%=      5-min Rain = 0
KCH1 131726Z 34011KT 04/03 A2985 RMK A01 T00440031  RH  092%=      5-min Rain = 0
KCH1 131727Z 34010G15KT 04/03 A2985 RMK A01 T00430030  RH  091%=      5-min Rain = 0
KCH1 131728Z 34009KT 04/03 A2985 RMK A01 T00430030  RH  091%=      5-min Rain = 0
KCH1 131729Z 33009KT 04/03 A2985 RMK A01 T00430031  RH  092%=      5-min Rain = 0.01
KCH1 131730Z 34009KT 04/03 A2985 RMK A01 T00430032  RH  092%=      5-min Rain = 0
KCH1 131731Z 34009KT 04/03 A2985 RMK A01 T00430032  RH  093%=      5-min Rain = 0
KCH1 131732Z 34008KT 04/03 A2985 RMK A01 T00430032  RH  093%=      5-min Rain = 0
KCH1 131733Z 34008KT 04/03 A2985 RMK A01 T00430033  RH  093%=      5-min Rain = 0
KCH1 131734Z 34008KT 04/03 A2985 RMK A01 T00420032  RH  093%=      5-min Rain = 0.01
KCH1 131735Z 34011KT 04/03 A2985 RMK A01 T00420033  RH  093%=      5-min Rain = 0
KCH1 131736Z 34009KT 04/03 A2985 RMK A01 T00420032  RH  093%=      5-min Rain = 0
KCH1 131737Z 35008KT 04/03 A2986 RMK A01 T00410031  RH  093%=      5-min Rain = 0
KCH1 131738Z 34009KT 04/03 A2986 RMK A01 T00410031  RH  093%=      5-min Rain = 0
KCH1 131739Z 33008KT 04/03 A2986 RMK A01 T00410031  RH  093%=      5-min Rain = 0.01
KCH1 131740Z 34009KT 04/03 A2986 RMK A01 T00410031  RH  093%=      5-min Rain = 0
KCH1 131741Z 34008KT 04/03 A2986 RMK A01 T00400031  RH  094%=      5-min Rain = 0
KCH1 131742Z 33009KT 04/03 A2986 RMK A01 T00400031  RH  094%=      5-min Rain = 0
KCH1 131743Z 32008KT 04/03 A2986 RMK A01 T00400031  RH  094%=      5-min Rain = 0.01
KCH1 131744Z 33010KT 04/03 A2986 RMK A01 T00400031  RH  094%=      5-min Rain = 0
KCH1 131745Z 33011KT 04/03 A2986 RMK A01 T00400031  RH  094%=      5-min Rain = 0.01
KCH1 131746Z 35010KT 04/03 A2986 RMK A01 T00400030  RH  093%=      5-min Rain = 0
KCH1 131747Z 33008KT 04/03 A2986 RMK A01 T00400030  RH  093%=      5-min Rain = 0.01
KCH1 131748Z 33007KT 04/03 A2986 RMK A01 T00400030  RH  093%=      5-min Rain = 0
KCH1 131749Z 33006KT 04/03 A2986 RMK A01 T00400031  RH  094%=      5-min Rain = 0
KCH1 131750Z 34007KT 04/03 A2986 RMK A01 T00400031  RH  094%=      5-min Rain = 0.01
KCH1 131751Z 34006KT 04/03 A2986 RMK A01 T00400032  RH  094%=      5-min Rain = 0
KCH1 131752Z 33007KT 04/03 A2986 RMK A01 T00400032  RH  095%=      5-min Rain = 0
KCH1 131753Z 32008KT 04/03 A2986 RMK A01 T00400032  RH  094%=      5-min Rain = 0.01
KCH1 131754Z 33010KT 04/03 A2986 RMK A01 T00400031  RH  094%=      5-min Rain = 0
KCH1 131755Z 33007KT 04/03 A2986 RMK A01 T00400031  RH  094%=      5-min Rain = 0
KCH1 131756Z 33008KT 04/03 A2986 RMK A01 T00400031  RH  094%=      5-min Rain = 0.01
KCH1 131757Z 35008KT 04/03 A2986 RMK A01 T00400031  RH  094%=      5-min Rain = 0
KCH1 131758Z 35008KT 04/03 A2986 RMK A01 T00400031  RH  094%=      5-min Rain = 0
KCH1 131759Z 34010KT 04/03 A2986 RMK A01 T00400031  RH  094%=      5-min Rain = 0.01
KCH1 131800Z 34010KT 04/03 A2986 RMK A01 T00400031  RH  094%=      5-min Rain = 0
KCH1 131801Z 33007KT 04/03 A2986 RMK A01 T00390030  RH  094%=      5-min Rain = 0
KCH1 131802Z 33009KT 04/03 A2986 RMK A01 T00390031  RH  094%=      5-min Rain = 0.01
KCH1 131803Z 31008KT 04/03 A2986 RMK A01 T00390031  RH  094%=      5-min Rain = 0
KCH1 131804Z 32011KT 04/03 A2986 RMK A01 T00390031  RH  094%=      5-min Rain = 0
KCH1 131805Z 32011KT 04/03 A2986 RMK A01 T00380029  RH  094%=      5-min Rain = 0.01
KCH1 131806Z 31012KT 04/03 A2986 RMK A01 T00370028  RH  094%=      5-min Rain = 0
KCH1 131807Z 32011KT 04/03 A2986 RMK A01 T00360027  RH  094%=      5-min Rain = 0.01
KCH1 131808Z 32010KT 04/03 A2986 RMK A01 T00360027  RH  094%=      5-min Rain = 0
KCH1 131809Z 32010KT 04/03 A2986 RMK A01 T00360028  RH  095%=      5-min Rain = 0
KCH1 131810Z 32010KT 04/03 A2986 RMK A01 T00360028  RH  095%=      5-min Rain = 0.01
KCH1 131811Z 31009KT 04/03 A2986 RMK A01 T00350028  RH  095%=      5-min Rain = 0
KCH1 131812Z 32010KT 04/03 A2986 RMK A01 T00350029  RH  096%=      5-min Rain = 0
KCH1 131813Z 32009KT 04/03 A2986 RMK A01 T00350030  RH  096%=      5-min Rain = 0.01
KCH1 131814Z 32011KT 04/03 A2986 RMK A01 T00360030  RH  096%=      5-min Rain = 0
KCH1 131815Z 32009KT 04/03 A2986 RMK A01 T00360030  RH  096%=      5-min Rain = 0
KCH1 131816Z 32010G15KT 04/03 A2986 RMK A01 T00360031  RH  096%=      5-min Rain = 0
KCH1 131817Z 32010KT 04/03 A2986 RMK A01 T00360031  RH  096%=      5-min Rain = 0
KCH1 131818Z 32011G16KT 04/03 A2986 RMK A01 T00360031  RH  096%=      5-min Rain = 0
KCH1 131819Z 32012KT 04/03 A2986 RMK A01 T00370031  RH  096%=      5-min Rain = 0
KCH1 131820Z 31014KT 04/03 A2986 RMK A01 T00370031  RH  096%=      5-min Rain = 0.01
KCH1 131821Z 32015KT 04/03 A2986 RMK A01 T00360030  RH  096%=      5-min Rain = 0
KCH1 131822Z 32011KT 04/03 A2986 RMK A01 T00370030  RH  096%=      5-min Rain = 0
KCH1 131823Z 31013KT 04/03 A2986 RMK A01 T00360030  RH  095%=      5-min Rain = 0
KCH1 131824Z 31013G18KT 04/03 A2986 RMK A01 T00350028  RH  095%=      5-min Rain = 0
KCH1 131825Z 32013KT 04/03 A2986 RMK A01 T00350027  RH  095%=      5-min Rain = 0
KCH1 131826Z 31011KT 03/03 A2986 RMK A01 T00340027  RH  095%=      5-min Rain = 0
KCH1 131827Z 31011KT 03/03 A2987 RMK A01 T00330026  RH  095%=      5-min Rain = 0
KCH1 131828Z 32010KT 03/03 A2987 RMK A01 T00320025  RH  095%=      5-min Rain = 0.01
KCH1 131829Z 31010G15KT 03/03 A2987 RMK A01 T00310025  RH  096%=      5-min Rain = 0
KCH1 131830Z 31010G15KT 03/03 A2987 RMK A01 T00310025  RH  096%=      5-min Rain = 0
KCH1 131831Z 30009KT 03/02 A2987 RMK A01 T00300024  RH  096%=      5-min Rain = 0
KCH1 131832Z 30011G16KT 03/02 A2987 RMK A01 T00290024  RH  096%=      5-min Rain = 0
KCH1 131833Z 29014KT 03/02 A2987 RMK A01 T00280022  RH  096%=      5-min Rain = 0
KCH1 131834Z 30011G16KT 03/02 A2987 RMK A01 T00270021  RH  096%=      5-min Rain = 0
KCH1 131835Z 30012KT 03/02 A2987 RMK A01 T00260020  RH  096%=      5-min Rain = 0
KCH1 131836Z 30015KT 03/02 A2987 RMK A01 T00250020  RH  096%=      5-min Rain = 0
KCH1 131837Z 30014G20KT 02/02 A2987 RMK A01 T00240019  RH  096%=      5-min Rain = 0
KCH1 131838Z 30012KT 02/02 A2987 RMK A01 T00230018  RH  097%=      5-min Rain = 0
KCH1 131839Z 30011KT 02/02 A2987 RMK A01 T00210017  RH  097%=      5-min Rain = 0
KCH1 131840Z 30009KT 02/02 A2987 RMK A01 T00210016  RH  097%=      5-min Rain = 0.01
KCH1 131841Z 30010KT 02/02 A2987 RMK A01 T00200015  RH  097%=      5-min Rain = 0
KCH1 131842Z 30011KT 02/01 A2987 RMK A01 T00190014  RH  097%=      5-min Rain = 0
KCH1 131843Z 30012KT 02/01 A2987 RMK A01 T00170013  RH  097%=      5-min Rain = 0
KCH1 131844Z 30011KT 02/01 A2987 RMK A01 T00160012  RH  097%=      5-min Rain = 0.01
KCH1 131845Z 30011KT 02/01 A2987 RMK A01 T00150011  RH  097%=      5-min Rain = 0
KCH1 131846Z 30011KT 01/01 A2987 RMK A01 T00140011  RH  097%=      5-min Rain = 0
KCH1 131847Z 30012KT 01/01 A2987 RMK A01 T00130009  RH  097%=      5-min Rain = 0.01
KCH1 131848Z 29011KT 01/01 A2987 RMK A01 T00120008  RH  097%=      5-min Rain = 0
KCH1 131849Z 30009KT 01/01 A2987 RMK A01 T00110008  RH  098%=      5-min Rain = 0
KCH1 131850Z 30010KT 01/01 A2987 RMK A01 T00110008  RH  098%=      5-min Rain = 0.01
KCH1 131851Z 29013KT 01/01 A2987 RMK A01 T00110009  RH  098%=      5-min Rain = 0
KCH1 131852Z 30014KT 01/01 A2987 RMK A01 T00120009  RH  098%=      5-min Rain = 0
KCH1 131853Z 30013KT 01/01 A2987 RMK A01 T00120010  RH  098%=      5-min Rain = 0.01
KCH1 131854Z 30013G19KT 01/01 A2988 RMK A01 T00120010  RH  099%=      5-min Rain = 0
KCH1 131855Z 30013KT 01/01 A2988 RMK A01 T00120010  RH  099%=      5-min Rain = 0.01
KCH1 131856Z 30013KT 01/01 A2987 RMK A01 T00120010  RH  099%=      5-min Rain = 0
KCH1 131857Z 30011KT 01/01 A2987 RMK A01 T00120010  RH  099%=      5-min Rain = 0
KCH1 131858Z 30012KT 01/01 A2987 RMK A01 T00110009  RH  098%=      5-min Rain = 0
KCH1 131859Z 31011KT 01/01 A2987 RMK A01 T00120009  RH  099%=      5-min Rain = 0.01
KCH1 131900Z 30009KT 01/01 A2988 RMK A01 T00110009  RH  099%=      5-min Rain = 0
KCH1 131901Z 31008KT 01/01 A2988 RMK A01 T00110009  RH  099%=      5-min Rain = 0
KCH1 131902Z 30008KT 01/01 A2988 RMK A01 T00100008  RH  099%=      5-min Rain = 0.01
KCH1 131903Z 30010KT 01/01 A2988 RMK A01 T00110009  RH  099%=      5-min Rain = 0
KCH1 131904Z 29011KT 01/01 A2988 RMK A01 T00100008  RH  099%=      5-min Rain = 0
KCH1 131905Z 30011KT 01/01 A2988 RMK A01 T00100009  RH  099%=      5-min Rain = 0.01
KCH1 131906Z 30013G19KT 01/01 A2988 RMK A01 T00100008  RH  099%=      5-min Rain = 0
KCH1 131907Z 29013KT 01/01 A2988 RMK A01 T00100008  RH  099%=      5-min Rain = 0.01
KCH1 131908Z 29013G18KT 01/01 A2988 RMK A01 T00090008  RH  099%=      5-min Rain = 0
KCH1 131909Z 30009KT 01/01 A2988 RMK A01 T00100008  RH  099%=      5-min Rain = 0
KCH1 131910Z 29011KT 01/01 A2988 RMK A01 T00090008  RH  099%=      5-min Rain = 0.01
KCH1 131911Z 29009G14KT 01/01 A2988 RMK A01 T00090008  RH  099%=      5-min Rain = 0
KCH1 131912Z 30012KT 01/01 A2988 RMK A01 T00090008  RH  099%=      5-min Rain = 0.01
KCH1 131913Z 30011KT 01/01 A2988 RMK A01 T00090008  RH  099%=      5-min Rain = 0
KCH1 131914Z 29011KT 01/01 A2988 RMK A01 T00090008  RH  099%=      5-min Rain = 0
KCH1 131915Z 30010KT 01/01 A2988 RMK A01 T00090008  RH  099%=      5-min Rain = 0
KCH1 131916Z 30010KT 01/01 A2988 RMK A01 T00090008  RH  099%=      5-min Rain = 0.01
KCH1 131917Z 29009KT 01/01 A2988 RMK A01 T00080007  RH  099%=      5-min Rain = 0
KCH1 131918Z 29010KT 01/01 A2988 RMK A01 T00080007  RH  099%=      5-min Rain = 0
KCH1 131919Z 29011G16KT 01/01 A2988 RMK A01 T00070006  RH  099%=      5-min Rain = 0
KCH1 131920Z 29009KT 01/01 A2988 RMK A01 T00070006  RH  099%=      5-min Rain = 0.01
KCH1 131921Z 30010KT 01/01 A2988 RMK A01 T00070005  RH  099%=      5-min Rain = 0
KCH1 131922Z 30010KT 01/01 A2988 RMK A01 T00070005  RH  099%=      5-min Rain = 0
KCH1 131923Z 30009KT 01/01 A2988 RMK A01 T00070006  RH  099%=      5-min Rain = 0
KCH1 131924Z 29010KT 01/01 A2988 RMK A01 T00070006  RH  099%=      5-min Rain = 0.01
KCH1 131925Z 29010G15KT 01/01 A2988 RMK A01 T00070006  RH  099%=      5-min Rain = 0
KCH1 131926Z 29009KT 01/01 A2988 RMK A01 T00070006  RH  099%=      5-min Rain = 0
KCH1 131927Z 30009KT 01/01 A2988 RMK A01 T00070006  RH  099%=      5-min Rain = 0
KCH1 131928Z 29011KT 01/01 A2988 RMK A01 T00070006  RH  099%=      5-min Rain = 0
KCH1 131929Z 30010G15KT 01/01 A2988 RMK A01 T00070006  RH  099%=      5-min Rain = 0.01
KCH1 131930Z 29014KT 01/01 A2988 RMK A01 T00070006  RH  099%=      5-min Rain = 0
KCH1 131931Z 29010KT 01/01 A2988 RMK A01 T00070006  RH  100%=      5-min Rain = 0
KCH1 131932Z 30009KT 01/01 A2988 RMK A01 T00070006  RH  100%=      5-min Rain = 0
KCH1 131933Z 30008G14KT 01/01 A2988 RMK A01 T00060006  RH  100%=      5-min Rain = 0
KCH1 131934Z 30011KT 01/01 A2988 RMK A01 T00070006  RH  100%=      5-min Rain = 0
KCH1 131935Z 30008KT 01/01 A2988 RMK A01 T00070006  RH  100%=      5-min Rain = 0.01
KCH1 131936Z 29009G14KT 01/01 A2988 RMK A01 T00070006  RH  100%=      5-min Rain = 0
KCH1 131937Z 29011KT 01/01 A2988 RMK A01 T00070006  RH  100%=      5-min Rain = 0
KCH1 131938Z 29012KT 01/01 A2988 RMK A01 T00070006  RH  100%=      5-min Rain = 0
KCH1 131939Z 30010G16KT 01/01 A2988 RMK A01 T00070006  RH  100%=      5-min Rain = 0
KCH1 131940Z 30011KT 01/01 A2988 RMK A01 T00070006  RH  100%=      5-min Rain = 0.01
KCH1 131941Z 30012KT 01/01 A2988 RMK A01 T00070006  RH  100%=      5-min Rain = 0
KCH1 131942Z 29011KT 01/01 A2988 RMK A01 T00070006  RH  100%=      5-min Rain = 0
KCH1 131943Z 30011KT 01/01 A2988 RMK A01 T00070006  RH  100%=      5-min Rain = 0
KCH1 131944Z 30013KT 01/01 A2988 RMK A01 T00060006  RH  100%=      5-min Rain = 0
KCH1 131945Z 29011KT 01/01 A2988 RMK A01 T00060005  RH  100%=      5-min Rain = 0
KCH1 131946Z 29011KT 01/01 A2988 RMK A01 T00060005  RH  100%=      5-min Rain = 0
KCH1 131947Z 30010KT 01/01 A2988 RMK A01 T00050005  RH  100%=      5-min Rain = 0
KCH1 131948Z 30010G15KT 01/01 A2988 RMK A01 T00050005  RH  100%=      5-min Rain = 0
KCH1 131949Z 30009KT 00/00 A2988 RMK A01 T00040004  RH  100%=      5-min Rain = 0
KCH1 131950Z 30010KT 00/00 A2988 RMK A01 T00040004  RH  100%=      5-min Rain = 0
KCH1 131951Z 30010KT 00/00 A2988 RMK A01 T00040003  RH  100%=      5-min Rain = 0
KCH1 131952Z 30008KT 00/00 A2988 RMK A01 T00040004  RH  100%=      5-min Rain = 0
KCH1 131953Z 30009KT 00/00 A2988 RMK A01 T00040003  RH  100%=      5-min Rain = 0
KCH1 131954Z 30010KT 00/00 A2988 RMK A01 T00040003  RH  100%=      5-min Rain = 0
KCH1 131955Z 30010KT 00/00 A2988 RMK A01 T00040003  RH  100%=      5-min Rain = 0
KCH1 131956Z 30009G14KT 00/00 A2988 RMK A01 T00040004  RH  100%=      5-min Rain = 0
KCH1 131957Z 30010KT 00/00 A2988 RMK A01 T00040004  RH  100%=      5-min Rain = 0
KCH1 131958Z 30011KT 00/00 A2988 RMK A01 T00040004  RH  100%=      5-min Rain = 0
KCH1 131959Z 30010KT 00/00 A2988 RMK A01 T00040004  RH  100%=      5-min Rain = 0
KCH1 132000Z 30009G14KT 01/00 A2989 RMK A01 T00050004  RH  100%=      5-min Rain = 0
KCH1 132001Z 30010KT 00/00 A2989 RMK A01 T00040004  RH  100%=      5-min Rain = 0
KCH1 132002Z 30008KT 00/00 A2989 RMK A01 T00040004  RH  100%=      5-min Rain = 0
KCH1 132003Z 30009KT 00/00 A2989 RMK A01 T00040004  RH  100%=      5-min Rain = 0
KCH1 132004Z 30011G16KT 00/00 A2989 RMK A01 T00040004  RH  100%=      5-min Rain = 0
KCH1 132005Z 30009KT 01/00 A2989 RMK A01 T00050004  RH  100%=      5-min Rain = 0
KCH1 132006Z 30009KT 01/01 A2989 RMK A01 T00050005  RH  100%=      5-min Rain = 0
KCH1 132007Z 30009KT 01/01 A2989 RMK A01 T00050005  RH  100%=      5-min Rain = 0
KCH1 132008Z 30011KT 01/01 A2989 RMK A01 T00050005  RH  100%=      5-min Rain = 0
KCH1 132009Z 30010KT 01/01 A2989 RMK A01 T00050005  RH  100%=      5-min Rain = 0
KCH1 132010Z 30011KT 01/01 A2989 RMK A01 T00050005  RH  100%=      5-min Rain = 0
KCH1 132011Z 30011KT 01/01 A2989 RMK A01 T00050005  RH  100%=      5-min Rain = 0
KCH1 132012Z 30010KT 01/01 A2989 RMK A01 T00050005  RH  100%=      5-min Rain = 0
KCH1 132013Z 31011KT 01/01 A2989 RMK A01 T00050005  RH  100%=      5-min Rain = 0
KCH1 132014Z 31007KT 01/01 A2989 RMK A01 T00050005  RH  100%=      5-min Rain = 0
KCH1 132015Z 30010KT 01/01 A2989 RMK A01 T00050005  RH  100%=      5-min Rain = 0
KCH1 132016Z 30011KT 01/01 A2989 RMK A01 T00050005  RH  100%=      5-min Rain = 0
KCH1 132017Z 30007KT 01/01 A2989 RMK A01 T00050005  RH  100%=      5-min Rain = 0
KCH1 132018Z 30008KT 01/01 A2989 RMK A01 T00050005  RH  100%=      5-min Rain = 0.01
KCH1 132019Z 30009KT 01/01 A2989 RMK A01 T00050005  RH  100%=      5-min Rain = 0
KCH1 132020Z 30010KT 01/01 A2989 RMK A01 T00050005  RH  100%=      5-min Rain = 0
KCH1 132021Z 31011KT 01/01 A2989 RMK A01 T00050005  RH  100%=      5-min Rain = 0
KCH1 132022Z 31011KT 01/01 A2989 RMK A01 T00050005  RH  100%=      5-min Rain = 0
KCH1 132023Z 30010KT 01/01 A2989 RMK A01 T00050005  RH  100%=      5-min Rain = 0
KCH1 132024Z 31009KT 01/01 A2989 RMK A01 T00050005  RH  100%=      5-min Rain = 0.01
KCH1 132025Z 31007KT 01/01 A2989 RMK A01 T00050005  RH  100%=      5-min Rain = 0
KCH1 132026Z 30008KT 01/01 A2989 RMK A01 T00050005  RH  100%=      5-min Rain = 0
KCH1 132027Z 31007KT 01/01 A2989 RMK A01 T00050005  RH  100%=      5-min Rain = 0
KCH1 132028Z 30009G14KT 01/01 A2989 RMK A01 T00050005  RH  100%=      5-min Rain = 0
KCH1 132029Z 31009KT 01/01 A2989 RMK A01 T00050005  RH  100%=      5-min Rain = 0.01
KCH1 132030Z 30007KT 01/01 A2989 RMK A01 T00050005  RH  100%=      5-min Rain = 0
KCH1 132031Z 30010KT 01/01 A2989 RMK A01 T00050005  RH  100%=      5-min Rain = 0
KCH1 132032Z 30008KT 01/01 A2989 RMK A01 T00050005  RH  100%=      5-min Rain = 0.01
KCH1 132033Z 30009KT 01/01 A2989 RMK A01 T00060006  RH  100%=      5-min Rain = 0
KCH1 132034Z 30008KT 01/01 A2989 RMK A01 T00060006  RH  100%=      5-min Rain = 0
KCH1 132035Z 31012KT 01/01 A2989 RMK A01 T00060006  RH  100%=      5-min Rain = 0.01
KCH1 132036Z 30009KT 01/01 A299 RMK A01 T00070007  RH  100%=      5-min Rain = 0
KCH1 132037Z 30009KT 01/01 A299 RMK A01 T00070007  RH  100%=      5-min Rain = 0
KCH1 132038Z 30010KT 01/01 A299 RMK A01 T00070006  RH  100%=      5-min Rain = 0
KCH1 132039Z 30010KT 01/01 A299 RMK A01 T00070007  RH  100%=      5-min Rain = 0.01
KCH1 132040Z 30009KT 01/01 A299 RMK A01 T00060006  RH  100%=      5-min Rain = 0
KCH1 132041Z 30011KT 01/01 A299 RMK A01 T00060006  RH  100%=      5-min Rain = 0
KCH1 132042Z 31011KT 01/01 A299 RMK A01 T00070006  RH  100%=      5-min Rain = 0
KCH1 132043Z 30010KT 01/01 A299 RMK A01 T00060006  RH  100%=      5-min Rain = 0.01
KCH1 132044Z 31010KT 01/01 A299 RMK A01 T00070007  RH  100%=      5-min Rain = 0
KCH1 132045Z 30009KT 01/01 A299 RMK A01 T00070007  RH  100%=      5-min Rain = 0
KCH1 132046Z 31007KT 01/01 A299 RMK A01 T00070007  RH  100%=      5-min Rain = 0
KCH1 132047Z 31009KT 01/01 A299 RMK A01 T00070007  RH  100%=      5-min Rain = 0.01
KCH1 132048Z 32008KT 01/01 A299 RMK A01 T00070007  RH  100%=      5-min Rain = 0
KCH1 132049Z 30008G13KT 01/01 A299 RMK A01 T00080008  RH  100%=      5-min Rain = 0
KCH1 132050Z 31008G13KT 01/01 A299 RMK A01 T00080008  RH  100%=      5-min Rain = 0.01
KCH1 132051Z 31008KT 01/01 A299 RMK A01 T00080008  RH  100%=      5-min Rain = 0
KCH1 132052Z 31008KT 01/01 A299 RMK A01 T00080008  RH  100%=      5-min Rain = 0
KCH1 132053Z 31010KT 01/01 A299 RMK A01 T00080008  RH  100%=      5-min Rain = 0.01
KCH1 132054Z 31009G15KT 01/01 A299 RMK A01 T00080008  RH  100%=      5-min Rain = 0
KCH1 132055Z 31011KT 01/01 A299 RMK A01 T00090009  RH  100%=      5-min Rain = 0
KCH1 132056Z 31010KT 01/01 A299 RMK A01 T00090009  RH  100%=      5-min Rain = 0
KCH1 132057Z 30010KT 01/01 A299 RMK A01 T00090008  RH  100%=      5-min Rain = 0.01
KCH1 132058Z 31007KT 01/01 A299 RMK A01 T00080008  RH  100%=      5-min Rain = 0
KCH1 132059Z 30007KT 01/01 A299 RMK A01 T00080008  RH  100%=      5-min Rain = 0
KCH1 132100Z 31007G12KT 01/01 A299 RMK A01 T00080008  RH  100%=      5-min Rain = 0.01
KCH1 132101Z 31009KT 01/01 A299 RMK A01 T00080008  RH  100%=      5-min Rain = 0
KCH1 132102Z 31009KT 01/01 A299 RMK A01 T00080008  RH  100%=      5-min Rain = 0
KCH1 132103Z 31008KT 01/01 A299 RMK A01 T00080008  RH  100%=      5-min Rain = 0
KCH1 132104Z 31010KT 01/01 A299 RMK A01 T00080008  RH  100%=      5-min Rain = 0
KCH1 132105Z 31009KT 01/01 A2991 RMK A01 T00080008  RH  100%=      5-min Rain = 0.01
KCH1 132106Z 30009G15KT 01/01 A299 RMK A01 T00080008  RH  100%=      5-min Rain = 0
KCH1 132107Z 31008G14KT 01/01 A2991 RMK A01 T00080008  RH  100%=      5-min Rain = 0
KCH1 132108Z 31010KT 01/01 A2991 RMK A01 T00080008  RH  100%=      5-min Rain = 0
KCH1 132109Z 31007KT 01/01 A2991 RMK A01 T00080008  RH  100%=      5-min Rain = 0
KCH1 132110Z 31011KT 01/01 A2991 RMK A01 T00070007  RH  100%=      5-min Rain = 0.01
KCH1 132111Z 32009KT 01/01 A2991 RMK A01 T00070007  RH  100%=      5-min Rain = 0
KCH1 132112Z 31008KT 01/01 A2991 RMK A01 T00070007  RH  100%=      5-min Rain = 0
KCH1 132113Z 31011G16KT 01/01 A2991 RMK A01 T00060006  RH  100%=      5-min Rain = 0
KCH1 132114Z 31012KT 01/01 A2991 RMK A01 T00060006  RH  100%=      5-min Rain = 0
KCH1 132115Z 31009KT 01/01 A2991 RMK A01 T00050005  RH  100%=      5-min Rain = 0
KCH1 132116Z 31012KT 01/01 A2991 RMK A01 T00050005  RH  100%=      5-min Rain = 0
KCH1 132117Z 31008KT 01/01 A2991 RMK A01 T00050005  RH  100%=      5-min Rain = 0
KCH1 132118Z 31006KT 00/00 A2991 RMK A01 T00040004  RH  100%=      5-min Rain = 0
KCH1 132119Z 31008KT 00/00 A2991 RMK A01 T00040004  RH  100%=      5-min Rain = 0
KCH1 132120Z 30009KT 00/00 A2991 RMK A01 T00040004  RH  100%=      5-min Rain = 0
KCH1 132121Z 31008KT 00/00 A2991 RMK A01 T00030003  RH  100%=      5-min Rain = 0
KCH1 132122Z 30007KT 00/00 A2991 RMK A01 T00030003  RH  100%=      5-min Rain = 0
KCH1 132123Z 30009KT 00/00 A2991 RMK A01 T00030003  RH  100%=      5-min Rain = 0
KCH1 132124Z 31008KT 00/00 A2991 RMK A01 T00030003  RH  100%=      5-min Rain = 0
KCH1 132125Z 30008KT 00/00 A2991 RMK A01 T00020002  RH  100%=      5-min Rain = 0
KCH1 132126Z 30007KT 00/00 A2991 RMK A01 T00020002  RH  100%=      5-min Rain = 0
KCH1 132127Z 31008KT 00/00 A2992 RMK A01 T00020002  RH  100%=      5-min Rain = 0
KCH1 132128Z 30007KT 00/00 A2992 RMK A01 T00020002  RH  100%=      5-min Rain = 0
KCH1 132129Z 31006KT 00/00 A2992 RMK A01 T00020002  RH  100%=      5-min Rain = 0
KCH1 132130Z 30009KT 00/00 A2992 RMK A01 T00020002  RH  100%=      5-min Rain = 0
KCH1 132131Z 31009KT 00/00 A2992 RMK A01 T00020002  RH  100%=      5-min Rain = 0
KCH1 132132Z 31008KT 00/00 A2992 RMK A01 T00020002  RH  100%=      5-min Rain = 0
KCH1 132133Z 30007KT 00/00 A2992 RMK A01 T00020002  RH  100%=      5-min Rain = 0
KCH1 132134Z 31009KT 00/00 A2992 RMK A01 T00020002  RH  100%=      5-min Rain = 0
KCH1 132135Z 31010KT 00/00 A2992 RMK A01 T00020002  RH  100%=      5-min Rain = 0
KCH1 132136Z 31008KT 00/00 A2992 RMK A01 T00020002  RH  100%=      5-min Rain = 0
KCH1 132137Z 31007KT 00/00 A2992 RMK A01 T00020002  RH  100%=      5-min Rain = 0
KCH1 132138Z 30007KT 00/00 A2992 RMK A01 T00020002  RH  100%=      5-min Rain = 0
KCH1 132139Z 30008KT 00/00 A2992 RMK A01 T00020002  RH  100%=      5-min Rain = 0
KCH1 132140Z 30009KT 00/00 A2992 RMK A01 T00020002  RH  100%=      5-min Rain = 0
KCH1 132141Z 31008KT 00/00 A2992 RMK A01 T00020002  RH  100%=      5-min Rain = 0
KCH1 132142Z 30006KT 00/00 A2992 RMK A01 T00020002  RH  100%=      5-min Rain = 0
KCH1 132143Z 30007KT 00/00 A2992 RMK A01 T00020002  RH  100%=      5-min Rain = 0
KCH1 132144Z 31007KT 00/00 A2992 RMK A01 T00020002  RH  100%=      5-min Rain = 0
KCH1 132145Z 30008KT 00/00 A2992 RMK A01 T00020002  RH  100%=      5-min Rain = 0
KCH1 132146Z 31007KT 00/00 A2993 RMK A01 T00020002  RH  100%=      5-min Rain = 0
KCH1 132147Z 31006KT 00/00 A2993 RMK A01 T00020002  RH  100%=      5-min Rain = 0
KCH1 132148Z 31008KT 00/00 A2993 RMK A01 T00020002  RH  100%=      5-min Rain = 0
KCH1 132149Z 30005KT 00/00 A2993 RMK A01 T00020002  RH  100%=      5-min Rain = 0
KCH1 132150Z 31010KT 00/00 A2993 RMK A01 T00020002  RH  100%=      5-min Rain = 0
KCH1 132151Z 30006KT 00/00 A2993 RMK A01 T00020002  RH  100%=      5-min Rain = 0
KCH1 132152Z 31008KT 00/00 A2993 RMK A01 T00020002  RH  100%=      5-min Rain = 0
KCH1 132153Z 30007KT 00/00 A2993 RMK A01 T00020002  RH  100%=      5-min Rain = 0
KCH1 132154Z 30008KT 00/00 A2993 RMK A01 T00020002  RH  100%=      5-min Rain = 0
KCH1 132155Z 30009KT 00/00 A2993 RMK A01 T00020001  RH  100%=      5-min Rain = 0
KCH1 132156Z 30009KT 00/00 A2993 RMK A01 T00020001  RH  100%=      5-min Rain = 0
KCH1 132157Z 30008KT 00/00 A2993 RMK A01 T00020002  RH  100%=      5-min Rain = 0
KCH1 132158Z 31006KT 00/00 A2993 RMK A01 T00020002  RH  100%=      5-min Rain = 0
KCH1 132159Z 31010KT 00/00 A2993 RMK A01 T00020002  RH  100%=      5-min Rain = 0
KCH1 132200Z 31011KT 00/00 A2993 RMK A01 T00020002  RH  100%=      5-min Rain = 0
KCH1 132201Z 31009KT 00/00 A2993 RMK A01 T00020002  RH  100%=      5-min Rain = 0
KCH1 132202Z 31008KT 00/00 A2993 RMK A01 T00020002  RH  100%=      5-min Rain = 0
KCH1 132203Z 31010KT 00/00 A2993 RMK A01 T00020002  RH  100%=      5-min Rain = 0
KCH1 132204Z 30008KT 00/00 A2993 RMK A01 T00020002  RH  100%=      5-min Rain = 0
KCH1 132205Z 30012KT 00/00 A2993 RMK A01 T00020002  RH  100%=      5-min Rain = 0
KCH1 132206Z 30011KT 00/00 A2993 RMK A01 T00020002  RH  100%=      5-min Rain = 0
KCH1 132207Z 31009KT 00/00 A2994 RMK A01 T00020002  RH  100%=      5-min Rain = 0
KCH1 132208Z 30009KT 00/00 A2994 RMK A01 T00020002  RH  100%=      5-min Rain = 0
KCH1 132209Z 31008KT 00/00 A2994 RMK A01 T00020002  RH  100%=      5-min Rain = 0
KCH1 132210Z 30009KT 00/00 A2994 RMK A01 T00020002  RH  100%=      5-min Rain = 0
KCH1 132211Z 31008KT 00/00 A2994 RMK A01 T00020002  RH  100%=      5-min Rain = 0
KCH1 132212Z 30008KT 00/00 A2994 RMK A01 T00020002  RH  100%=      5-min Rain = 0
KCH1 132213Z 30008KT 00/00 A2994 RMK A01 T00020002  RH  100%=      5-min Rain = 0
KCH1 132214Z 30008KT 00/00 A2994 RMK A01 T00020002  RH  100%=      5-min Rain = 0
KCH1 132215Z 30008KT 00/00 A2994 RMK A01 T00020002  RH  100%=      5-min Rain = 0
KCH1 132216Z 30009KT 00/00 A2994 RMK A01 T00020002  RH  100%=      5-min Rain = 0
KCH1 132217Z 29008KT 00/00 A2994 RMK A01 T00020002  RH  100%=      5-min Rain = 0
KCH1 132218Z 30008KT 00/00 A2994 RMK A01 T00020002  RH  100%=      5-min Rain = 0
KCH1 132219Z 30008KT 00/00 A2994 RMK A01 T00020002  RH  100%=      5-min Rain = 0
KCH1 132220Z 30008KT 00/00 A2994 RMK A01 T00020002  RH  100%=      5-min Rain = 0
KCH1 132221Z 30008KT 00/00 A2994 RMK A01 T00020002  RH  100%=      5-min Rain = 0
KCH1 132222Z 30007KT 00/00 A2994 RMK A01 T00020002  RH  100%=      5-min Rain = 0
KCH1 132223Z 30008KT 00/00 A2994 RMK A01 T00020002  RH  100%=      5-min Rain = 0
KCH1 132224Z 30009KT 00/00 A2995 RMK A01 T00020002  RH  100%=      5-min Rain = 0
KCH1 132225Z 30007KT 00/00 A2995 RMK A01 T00020002  RH  100%=      5-min Rain = 0
KCH1 132226Z 30007KT 00/00 A2995 RMK A01 T00020002  RH  100%=      5-min Rain = 0
KCH1 132227Z 30007KT 00/00 A2995 RMK A01 T00020002  RH  100%=      5-min Rain = 0
KCH1 132228Z 30007KT 00/00 A2995 RMK A01 T00020002  RH  100%=      5-min Rain = 0
KCH1 132229Z 31007KT 00/00 A2995 RMK A01 T00020002  RH  100%=      5-min Rain = 0
KCH1 132230Z 31008KT 00/00 A2995 RMK A01 T00020002  RH  100%=      5-min Rain = 0
KCH1 132231Z 31007KT 00/00 A2995 RMK A01 T00030003  RH  100%=      5-min Rain = 0
KCH1 132232Z 31008KT 00/00 A2995 RMK A01 T00030003  RH  100%=      5-min Rain = 0
KCH1 132233Z 31009KT 00/00 A2995 RMK A01 T00030003  RH  100%=      5-min Rain = 0
KCH1 132234Z 30008KT 00/00 A2995 RMK A01 T00040004  RH  100%=      5-min Rain = 0
KCH1 132235Z 31007KT 01/01 A2995 RMK A01 T00050005  RH  100%=      5-min Rain = 0
KCH1 132236Z 30008KT 01/01 A2995 RMK A01 T00050005  RH  100%=      5-min Rain = 0
KCH1 132237Z 31007KT 01/01 A2995 RMK A01 T00050005  RH  100%=      5-min Rain = 0
KCH1 132238Z 30007KT 01/01 A2995 RMK A01 T00050005  RH  100%=      5-min Rain = 0
KCH1 132239Z 30007KT 01/01 A2995 RMK A01 T00050005  RH  100%=      5-min Rain = 0
KCH1 132240Z 30005KT 01/01 A2995 RMK A01 T00050005  RH  100%=      5-min Rain = 0
KCH1 132241Z 30007KT 01/01 A2995 RMK A01 T00050005  RH  100%=      5-min Rain = 0
KCH1 132242Z 30007KT 01/01 A2995 RMK A01 T00050005  RH  100%=      5-min Rain = 0
KCH1 132243Z 30006KT 00/00 A2995 RMK A01 T00040004  RH  100%=      5-min Rain = 0
KCH1 132244Z 30008KT 00/00 A2995 RMK A01 T00040004  RH  100%=      5-min Rain = 0
KCH1 132245Z 30007KT 00/00 A2995 RMK A01 T00040004  RH  100%=      5-min Rain = 0
KCH1 132246Z 29007KT 00/00 A2995 RMK A01 T00030003  RH  100%=      5-min Rain = 0
KCH1 132247Z 30008KT 00/00 A2995 RMK A01 T00040003  RH  100%=      5-min Rain = 0
KCH1 132248Z 29006KT 00/00 A2995 RMK A01 T00040004  RH  100%=      5-min Rain = 0
KCH1 132249Z 30006KT 00/00 A2995 RMK A01 T00040004  RH  100%=      5-min Rain = 0
KCH1 132250Z 30009KT 00/00 A2996 RMK A01 T00030003  RH  100%=      5-min Rain = 0
KCH1 132251Z 30008KT 00/00 A2996 RMK A01 T00030003  RH  100%=      5-min Rain = 0
KCH1 132252Z 30006KT 00/00 A2996 RMK A01 T00030003  RH  100%=      5-min Rain = 0
KCH1 132253Z 30008KT 00/00 A2996 RMK A01 T00030003  RH  100%=      5-min Rain = 0
KCH1 132254Z 30007KT 00/00 A2996 RMK A01 T00030003  RH  100%=      5-min Rain = 0
KCH1 132255Z 29006KT 00/00 A2996 RMK A01 T00030003  RH  100%=      5-min Rain = 0
KCH1 132256Z 29007KT 00/00 A2996 RMK A01 T00030003  RH  100%=      5-min Rain = 0
KCH1 132257Z 30006KT 00/00 A2996 RMK A01 T00030003  RH  100%=      5-min Rain = 0
KCH1 132258Z 30007KT 00/00 A2996 RMK A01 T00030003  RH  100%=      5-min Rain = 0
KCH1 132259Z 30007KT 00/00 A2996 RMK A01 T00030003  RH  100%=      5-min Rain = 0
KCH1 132300Z 30008KT 00/00 A2996 RMK A01 T00030003  RH  100%=      5-min Rain = 0
KCH1 132301Z 30008KT 00/00 A2996 RMK A01 T00030003  RH  100%=      5-min Rain = 0
KCH1 132302Z 29007KT 00/00 A2996 RMK A01 T00030003  RH  100%=      5-min Rain = 0
KCH1 132303Z 30008KT 00/00 A2996 RMK A01 T00030003  RH  100%=      5-min Rain = 0
KCH1 132304Z 30007KT 00/00 A2996 RMK A01 T00030003  RH  100%=      5-min Rain = 0
KCH1 132305Z 30008KT 00/00 A2996 RMK A01 T00030003  RH  100%=      5-min Rain = 0
KCH1 132306Z 30008KT 00/00 A2996 RMK A01 T00030003  RH  100%=      5-min Rain = 0
KCH1 132307Z 30008KT 00/00 A2996 RMK A01 T00030003  RH  100%=      5-min Rain = 0
KCH1 132308Z 30007KT 00/00 A2996 RMK A01 T00030003  RH  100%=      5-min Rain = 0
KCH1 132309Z 30007KT 00/00 A2996 RMK A01 T00030003  RH  100%=      5-min Rain = 0
KCH1 132310Z 31008KT 00/00 A2996 RMK A01 T00030003  RH  100%=      5-min Rain = 0
KCH1 132311Z 30009KT 00/00 A2996 RMK A01 T00040004  RH  100%=      5-min Rain = 0
KCH1 132312Z 30009KT 00/00 A2996 RMK A01 T00040004  RH  100%=      5-min Rain = 0
KCH1 132313Z 31010KT 01/01 A2996 RMK A01 T00050005  RH  100%=      5-min Rain = 0
KCH1 132314Z 31009KT 01/01 A2996 RMK A01 T00060006  RH  100%=      5-min Rain = 0
KCH1 132315Z 30006KT 01/01 A2996 RMK A01 T00060006  RH  100%=      5-min Rain = 0.01
KCH1 132316Z 31008KT 01/01 A2996 RMK A01 T00060006  RH  100%=      5-min Rain = 0
KCH1 132317Z 32009KT 01/01 A2996 RMK A01 T00060006  RH  100%=      5-min Rain = 0
KCH1 132318Z 31009KT 01/01 A2996 RMK A01 T00060006  RH  100%=      5-min Rain = 0.01
KCH1 132319Z 31012KT 01/01 A2996 RMK A01 T00070007  RH  100%=      5-min Rain = 0
KCH1 132320Z 32010KT 01/01 A2996 RMK A01 T00070007  RH  100%=      5-min Rain = 0
KCH1 132321Z 31008KT 01/01 A2996 RMK A01 T00070007  RH  100%=      5-min Rain = 0
KCH1 132322Z 31012KT 01/01 A2996 RMK A01 T00070007  RH  100%=      5-min Rain = 0.01
KCH1 132323Z 32010KT 01/01 A2996 RMK A01 T00070007  RH  100%=      5-min Rain = 0
KCH1 132324Z 32011KT 01/01 A2996 RMK A01 T00080008  RH  100%=      5-min Rain = 0.01
KCH1 132325Z 32014KT 01/01 A2996 RMK A01 T00080008  RH  100%=      5-min Rain = 0
KCH1 132326Z 32010KT 01/01 A2997 RMK A01 T00090009  RH  100%=      5-min Rain = 0
KCH1 132327Z 32014KT 01/01 A2997 RMK A01 T00080008  RH  100%=      5-min Rain = 0.01
KCH1 132328Z 32012KT 01/01 A2997 RMK A01 T00090009  RH  100%=      5-min Rain = 0
KCH1 132329Z 32012KT 01/01 A2997 RMK A01 T00090009  RH  100%=      5-min Rain = 0.01
KCH1 132330Z 32009KT 01/01 A2997 RMK A01 T00100010  RH  100%=      5-min Rain = 0
KCH1 132331Z 32009KT 01/01 A2997 RMK A01 T00090009  RH  100%=      5-min Rain = 0
KCH1 132332Z 32010KT 01/01 A2997 RMK A01 T00090009  RH  100%=      5-min Rain = 0.01
KCH1 132333Z 32012KT 01/01 A2997 RMK A01 T00100010  RH  100%=      5-min Rain = 0
KCH1 132334Z 32011KT 01/01 A2997 RMK A01 T00100010  RH  100%=      5-min Rain = 0
KCH1 132335Z 32011KT 01/01 A2997 RMK A01 T00110010  RH  100%=      5-min Rain = 0.01
KCH1 132336Z 32010KT 01/01 A2997 RMK A01 T00110011  RH  100%=      5-min Rain = 0
KCH1 132337Z 32010KT 01/01 A2997 RMK A01 T00110011  RH  100%=      5-min Rain = 0
KCH1 132338Z 32010KT 01/01 A2997 RMK A01 T00110011  RH  100%=      5-min Rain = 0
KCH1 132339Z 32009KT 01/01 A2997 RMK A01 T00110011  RH  100%=      5-min Rain = 0.01
KCH1 132340Z 32010KT 01/01 A2997 RMK A01 T00110011  RH  100%=      5-min Rain = 0
KCH1 132341Z 33009KT 01/01 A2997 RMK A01 T00110011  RH  100%=      5-min Rain = 0.01
KCH1 132342Z 32011KT 01/01 A2997 RMK A01 T00120012  RH  100%=      5-min Rain = 0
KCH1 132343Z 32009KT 01/01 A2997 RMK A01 T00120012  RH  100%=      5-min Rain = 0
KCH1 132344Z 33009KT 01/01 A2997 RMK A01 T00120012  RH  100%=      5-min Rain = 0.01
KCH1 132345Z 33008KT 01/01 A2997 RMK A01 T00130013  RH  100%=      5-min Rain = 0
KCH1 132346Z 33008KT 01/01 A2997 RMK A01 T00130013  RH  100%=      5-min Rain = 0
KCH1 132347Z 33008KT 01/01 A2997 RMK A01 T00120012  RH  100%=      5-min Rain = 0.01
KCH1 132348Z 33007KT 01/01 A2998 RMK A01 T00120012  RH  100%=      5-min Rain = 0
KCH1 132349Z 34008KT 01/01 A2998 RMK A01 T00120012  RH  100%=      5-min Rain = 0
KCH1 132350Z 34007KT 01/01 A2998 RMK A01 T00120012  RH  100%=      5-min Rain = 0.01
KCH1 132351Z 34006KT 01/01 A2998 RMK A01 T00120011  RH  100%=      5-min Rain = 0
KCH1 132352Z 34007KT 01/01 A2998 RMK A01 T00110011  RH  100%=      5-min Rain = 0
KCH1 132353Z 34006KT 01/01 A2998 RMK A01 T00110010  RH  100%=      5-min Rain = 0.01
KCH1 132354Z 34007KT 01/01 A2998 RMK A01 T00110010  RH  100%=      5-min Rain = 0
KCH1 132355Z 34006KT 01/01 A2998 RMK A01 T00110010  RH  100%=      5-min Rain = 0
KCH1 132356Z 35006KT 01/01 A2998 RMK A01 T00110010  RH  100%=      5-min Rain = 0
KCH1 132357Z 35006KT 01/01 A2998 RMK A01 T00110010  RH  100%=      5-min Rain = 0
KCH1 132358Z 35007KT 01/01 A2998 RMK A01 T00100009  RH  100%=      5-min Rain = 0.01
KCH1 132359Z 35008KT 01/01 A2998 RMK A01 T00100009  RH  100%=      5-min Rain = 0
KCH1 140000Z 35006KT 01/01 A2998 RMK A01 T00100010  RH  100%=      5-min Rain = 0
KCH1 140001Z 34006KT 01/01 A2999 RMK A01 T00110010  RH  100%=      5-min Rain = 0
KCH1 140002Z 34005KT 01/01 A2998 RMK A01 T00100010  RH  100%=      5-min Rain = 0.01
KCH1 140003Z 33005KT 01/01 A2998 RMK A01 T00110010  RH  100%=      5-min Rain = 0
KCH1 140004Z 34006KT 01/01 A2999 RMK A01 T00100010  RH  100%=      5-min Rain = 0
KCH1 140005Z 33008KT 01/01 A2999 RMK A01 T00100010  RH  100%=      5-min Rain = 0
KCH1 140006Z 33008KT 01/01 A2999 RMK A01 T00110010  RH  100%=      5-min Rain = 0
KCH1 140007Z 33009KT 01/01 A2999 RMK A01 T00110010  RH  100%=      5-min Rain = 0.01
KCH1 140008Z 33007KT 01/01 A2999 RMK A01 T00110011  RH  100%=      5-min Rain = 0
KCH1 140009Z 33008KT 01/01 A2999 RMK A01 T00110011  RH  100%=      5-min Rain = 0
KCH1 140010Z 33007KT 01/01 A2999 RMK A01 T00120011  RH  100%=      5-min Rain = 0
KCH1 140011Z 32009KT 01/01 A2999 RMK A01 T00130012  RH  100%=      5-min Rain = 0.01
KCH1 140012Z 33009KT 01/01 A2999 RMK A01 T00130012  RH  100%=      5-min Rain = 0
KCH1 140013Z 33007KT 01/01 A2999 RMK A01 T00140013  RH  100%=      5-min Rain = 0
KCH1 140014Z 32008KT 01/01 A2999 RMK A01 T00140013  RH  099%=      5-min Rain = 0.01
KCH1 140015Z 33008KT 01/01 A2999 RMK A01 T00140013  RH  099%=      5-min Rain = 0
KCH1 140016Z 32008KT 01/01 A2999 RMK A01 T00140013  RH  099%=      5-min Rain = 0
KCH1 140017Z 33007KT 01/01 A2999 RMK A01 T00140013  RH  099%=      5-min Rain = 0.01
KCH1 140018Z 33007KT 01/01 A2999 RMK A01 T00140013  RH  099%=      5-min Rain = 0
KCH1 140019Z 33008KT 01/01 A2999 RMK A01 T00140013  RH  099%=      5-min Rain = 0
KCH1 140020Z 32008KT 01/01 A2999 RMK A01 T00140013  RH  099%=      5-min Rain = 0
KCH1 140021Z 33009KT 01/01 A2999 RMK A01 T00140013  RH  099%=      5-min Rain = 0.01
KCH1 140022Z 32008KT 02/01 A2999 RMK A01 T00150014  RH  099%=      5-min Rain = 0
KCH1 140023Z 32008KT 02/01 A2999 RMK A01 T00150014  RH  099%=      5-min Rain = 0
KCH1 140024Z 32010KT 02/01 A2999 RMK A01 T00160014  RH  099%=      5-min Rain = 0
KCH1 140025Z 32010KT 02/02 A2999 RMK A01 T00160015  RH  099%=      5-min Rain = 0.01
KCH1 140026Z 32009KT 02/02 A2999 RMK A01 T00170015  RH  099%=      5-min Rain = 0
KCH1 140027Z 32009KT 02/02 A2999 RMK A01 T00170015  RH  099%=      5-min Rain = 0
KCH1 140028Z 32008KT 02/02 A2999 RMK A01 T00170015  RH  099%=      5-min Rain = 0.01
KCH1 140029Z 32009KT 02/02 A2999 RMK A01 T00170015  RH  099%=      5-min Rain = 0
KCH1 140030Z 32010KT 02/02 A2999 RMK A01 T00170016  RH  099%=      5-min Rain = 0
KCH1 140031Z 31009KT 02/02 A2999 RMK A01 T00180016  RH  099%=      5-min Rain = 0.01
KCH1 140032Z 31010KT 02/02 A2999 RMK A01 T00180016  RH  099%=      5-min Rain = 0
KCH1 140033Z 31008KT 02/02 A2999 RMK A01 T00180016  RH  099%=      5-min Rain = 0
KCH1 140034Z 32008KT 02/02 A2999 RMK A01 T00190017  RH  099%=      5-min Rain = 0.01
KCH1 140035Z 31009KT 02/02 A2999 RMK A01 T00180016  RH  098%=      5-min Rain = 0
KCH1 140036Z 32009KT 02/02 A2999 RMK A01 T00190017  RH  099%=      5-min Rain = 0
KCH1 140037Z 32010KT 02/02 A2999 RMK A01 T00190017  RH  099%=      5-min Rain = 0.01
KCH1 140038Z 31010KT 02/02 A2999 RMK A01 T00200018  RH  099%=      5-min Rain = 0
KCH1 140039Z 31010G15KT 02/02 A2999 RMK A01 T00210019  RH  099%=      5-min Rain = 0
KCH1 140040Z 32010KT 02/02 A2999 RMK A01 T00210019  RH  099%=      5-min Rain = 0.01
KCH1 140041Z 32009KT 02/02 A2999 RMK A01 T00220020  RH  098%=      5-min Rain = 0
KCH1 140042Z 32011KT 02/02 A2999 RMK A01 T00220019  RH  098%=      5-min Rain = 0.01
KCH1 140043Z 32011KT 02/02 A2999 RMK A01 T00220020  RH  098%=      5-min Rain = 0
KCH1 140044Z 32007KT 02/02 A2999 RMK A01 T00220020  RH  098%=      5-min Rain = 0
KCH1 140045Z 33011KT 02/02 A2999 RMK A01 T00220019  RH  098%=      5-min Rain = 0.01
KCH1 140046Z 32011KT 02/02 A2999 RMK A01 T00220019  RH  098%=      5-min Rain = 0
KCH1 140047Z 32011KT 02/02 A2999 RMK A01 T00230019  RH  097%=      5-min Rain = 0
KCH1 140048Z 33010KT 02/02 A2999 RMK A01 T00230019  RH  097%=      5-min Rain = 0.01
KCH1 140049Z 32009KT 02/02 A2999 RMK A01 T00240019  RH  097%=      5-min Rain = 0
KCH1 140050Z 32009KT 02/02 A2999 RMK A01 T00230018  RH  096%=      5-min Rain = 0
KCH1 140051Z 32011KT 02/02 A2999 RMK A01 T00230018  RH  096%=      5-min Rain = 0.01
KCH1 140052Z 32011KT 02/02 A2999 RMK A01 T00240018  RH  096%=      5-min Rain = 0
KCH1 140053Z 32011KT 03/02 A2999 RMK A01 T00250018  RH  095%=      5-min Rain = 0
KCH1 140054Z 33014KT 03/02 A2999 RMK A01 T00260017  RH  094%=      5-min Rain = 0.01
KCH1 140055Z 33013KT 03/02 A2999 RMK A01 T00260017  RH  093%=      5-min Rain = 0
KCH1 140056Z 33011G16KT 03/02 A2999 RMK A01 T00270016  RH  092%=      5-min Rain = 0
KCH1 140057Z 33012KT 03/02 A2999 RMK A01 T00270015  RH  092%=      5-min Rain = 0.01
KCH1 140058Z 33011KT 03/02 A2999 RMK A01 T00260015  RH  092%=      5-min Rain = 0
KCH1 140059Z 34010KT 03/01 A2999 RMK A01 T00260014  RH  092%=      5-min Rain = 0
KCH1 140100Z 33009KT 03/01 A2999 RMK A01 T00260013  RH  092%=      5-min Rain = 0.01
KCH1 140101Z 33010KT 03/01 A2999 RMK A01 T00250013  RH  092%=      5-min Rain = 0
KCH1 140102Z 32009KT 03/01 A2999 RMK A01 T00250013  RH  092%=      5-min Rain = 0
KCH1 140103Z 33010KT 02/01 A30 RMK A01 T00240013  RH  092%=      5-min Rain = 0
KCH1 140104Z 32010KT 03/01 A30 RMK A01 T00250013  RH  092%=      5-min Rain = 0.01
KCH1 140105Z 32012G17KT 03/01 A30 RMK A01 T00250013  RH  092%=      5-min Rain = 0
KCH1 140106Z 32012G17KT 03/01 A2999 RMK A01 T00260013  RH  091%=      5-min Rain = 0
KCH1 140107Z 32014G19KT 03/01 A30 RMK A01 T00270013  RH  091%=      5-min Rain = 0
KCH1 140108Z 32014KT 03/01 A2999 RMK A01 T00280013  RH  090%=      5-min Rain = 0.01
KCH1 140109Z 32015KT 03/01 A2999 RMK A01 T00290013  RH  089%=      5-min Rain = 0
KCH1 140110Z 32014KT 03/01 A30 RMK A01 T00300013  RH  089%=      5-min Rain = 0
KCH1 140111Z 32012KT 03/01 A30 RMK A01 T00300013  RH  089%=      5-min Rain = 0
KCH1 140112Z 32013KT 03/01 A2999 RMK A01 T00300013  RH  089%=      5-min Rain = 0.01
KCH1 140113Z 31011KT 03/01 A2999 RMK A01 T00300014  RH  089%=      5-min Rain = 0
KCH1 140114Z 32012KT 03/01 A2999 RMK A01 T00310014  RH  089%=      5-min Rain = 0
KCH1 140115Z 32014G22KT 03/01 A2999 RMK A01 T00310014  RH  089%=      5-min Rain = 0.01
KCH1 140116Z 32015G20KT 03/01 A2999 RMK A01 T00320014  RH  088%=      5-min Rain = 0
KCH1 140117Z 32012KT 03/01 A2999 RMK A01 T00330013  RH  087%=      5-min Rain = 0.01
KCH1 140118Z 32012KT 03/01 A2999 RMK A01 T00330014  RH  087%=      5-min Rain = 0
KCH1 140119Z 32011KT 03/01 A2999 RMK A01 T00330014  RH  088%=      5-min Rain = 0
KCH1 140120Z 32012KT 03/02 A2999 RMK A01 T00320015  RH  088%=      5-min Rain = 0.01
KCH1 140121Z 33010KT 03/02 A2999 RMK A01 T00320015  RH  088%=      5-min Rain = 0
KCH1 140122Z 34009KT 03/02 A2999 RMK A01 T00320015  RH  089%=      5-min Rain = 0
KCH1 140123Z 33009G14KT 03/01 A2999 RMK A01 T00310014  RH  089%=      5-min Rain = 0
KCH1 140124Z 33012KT 03/01 A2999 RMK A01 T00300014  RH  090%=      5-min Rain = 0
KCH1 140125Z 33011KT 03/01 A2999 RMK A01 T00290014  RH  090%=      5-min Rain = 0.01
KCH1 140126Z 33010KT 03/01 A30 RMK A01 T00300014  RH  089%=      5-min Rain = 0
KCH1 140127Z 33009KT 03/01 A30 RMK A01 T00300014  RH  089%=      5-min Rain = 0
KCH1 140128Z 33011KT 03/01 A30 RMK A01 T00300013  RH  089%=      5-min Rain = 0
KCH1 140129Z 32012KT 03/01 A30 RMK A01 T00300013  RH  089%=      5-min Rain = 0.01
KCH1 140130Z 33013KT 03/01 A30 RMK A01 T00300013  RH  089%=      5-min Rain = 0
KCH1 140131Z 34015KT 03/01 A30 RMK A01 T00310013  RH  088%=      5-min Rain = 0
KCH1 140132Z 34012KT 03/01 A30 RMK A01 T00310012  RH  087%=      5-min Rain = 0
KCH1 140133Z 33012G17KT 03/01 A30 RMK A01 T00320011  RH  086%=      5-min Rain = 0.01
KCH1 140134Z 33012KT 03/01 A30 RMK A01 T00330011  RH  085%=      5-min Rain = 0
KCH1 140135Z 32013KT 03/01 A30 RMK A01 T00330010  RH  085%=      5-min Rain = 0.01
KCH1 140136Z 33013KT 03/01 A30 RMK A01 T00330011  RH  085%=      5-min Rain = 0
KCH1 140137Z 32014KT 03/01 A30 RMK A01 T00330011  RH  085%=      5-min Rain = 0
KCH1 140138Z 32018G23KT 03/01 A2999 RMK A01 T00340010  RH  084%=      5-min Rain = 0
KCH1 140139Z 32012G22KT 04/01 A2999 RMK A01 T00350009  RH  083%=      5-min Rain = 0.01
KCH1 140140Z 32012G17KT 04/01 A2999 RMK A01 T00360010  RH  083%=      5-min Rain = 0
KCH1 140141Z 32014KT 03/01 A2999 RMK A01 T00340009  RH  084%=      5-min Rain = 0.01
KCH1 140142Z 32012G19KT 03/01 A2999 RMK A01 T00340010  RH  084%=      5-min Rain = 0
KCH1 140143Z 33012KT 03/01 A2999 RMK A01 T00330009  RH  084%=      5-min Rain = 0
KCH1 140144Z 32014KT 03/01 A2999 RMK A01 T00330010  RH  084%=      5-min Rain = 0
KCH1 140145Z 33012KT 03/01 A2999 RMK A01 T00340010  RH  084%=      5-min Rain = 0
KCH1 140146Z 32015KT 03/01 A2999 RMK A01 T00340010  RH  084%=      5-min Rain = 0.01
KCH1 140147Z 32013KT 04/01 A2999 RMK A01 T00350009  RH  083%=      5-min Rain = 0
KCH1 140148Z 33012KT 04/01 A2999 RMK A01 T00350009  RH  083%=      5-min Rain = 0
KCH1 140149Z 34012G17KT 04/01 A30 RMK A01 T00350009  RH  083%=      5-min Rain = 0
KCH1 140150Z 35010KT 03/01 A30 RMK A01 T00340010  RH  084%=      5-min Rain = 0
KCH1 140151Z 33012KT 03/01 A30 RMK A01 T00340010  RH  084%=      5-min Rain = 0.01
KCH1 140152Z 34014G22KT 03/01 A30 RMK A01 T00330009  RH  084%=      5-min Rain = 0
KCH1 140153Z 35019G24KT 04/01 A30 RMK A01 T00360008  RH  082%=      5-min Rain = 0
KCH1 140154Z 35021G26KT 04/01 A30 RMK A01 T00380007  RH  080%=      5-min Rain = 0
KCH1 140155Z 36019G26KT 04/01 A30 RMK A01 T00410005  RH  077%=      5-min Rain = 0.01
KCH1 140156Z 34018G24KT 04/00 A2999 RMK A01 T00430004  RH  076%=      5-min Rain = 0
KCH1 140157Z 36019G26KT 04/00 A30 RMK A01 T00430004  RH  076%=      5-min Rain = 0
KCH1 140158Z 35017G22KT 04/01 A30 RMK A01 T00430005  RH  076%=      5-min Rain = 0.01
KCH1 140159Z 35017G22KT 04/01 A30 RMK A01 T00430005  RH  076%=      5-min Rain = 0
KCH1 140200Z 35019G30KT 04/00 A30 RMK A01 T00430004  RH  076%=      5-min Rain = 0
KCH1 140201Z 34017G28KT 04/01 A30 RMK A01 T00430006  RH  077%=      5-min Rain = 0.01
KCH1 140202Z 34018G31KT 04/01 A30 RMK A01 T00420005  RH  077%=      5-min Rain = 0
KCH1 140203Z 34017G26KT 04/01 A30 RMK A01 T00430005  RH  077%=      5-min Rain = 0
KCH1 140204Z 33016KT 04/00 A30 RMK A01 T00430004  RH  076%=      5-min Rain = 0.01
KCH1 140205Z 33015G20KT 04/00 A30 RMK A01 T00430004  RH  076%=      5-min Rain = 0
KCH1 140206Z 33012G17KT 04/01 A30 RMK A01 T00420005  RH  077%=      5-min Rain = 0
KCH1 140207Z 32016G25KT 04/01 A30 RMK A01 T00400005  RH  078%=      5-min Rain = 0
KCH1 140208Z 33017KT 04/00 A2999 RMK A01 T00410003  RH  076%=      5-min Rain = 0.01
KCH1 140209Z 34019KT 04/00 A30 RMK A01 T00440003  RH  075%=      5-min Rain = 0
KCH1 140210Z 35018G25KT 05/00 A30 RMK A01 T00450002  RH  074%=      5-min Rain = 0
KCH1 140211Z 34018KT 05/00 A2999 RMK A01 T00460002  RH  073%=      5-min Rain = 0.01
KCH1 140212Z 34013G19KT 05/00 A30 RMK A01 T00450003  RH  074%=      5-min Rain = 0
KCH1 140213Z 34014G19KT 04/00 A30 RMK A01 T00440003  RH  075%=      5-min Rain = 0
KCH1 140214Z 34012KT 04/00 A30 RMK A01 T00430004  RH  076%=      5-min Rain = 0.01
KCH1 140215Z 33011KT 04/00 A30 RMK A01 T00410004  RH  077%=      5-min Rain = 0
KCH1 140216Z 33014G19KT 04/00 A30 RMK A01 T00410004  RH  077%=      5-min Rain = 0
KCH1 140217Z 34016G22KT 04/00 A2999 RMK A01 T00420002  RH  075%=      5-min Rain = 0
KCH1 140218Z 34019G25KT 04/00 A2999 RMK A01 T00440001  RH  074%=      5-min Rain = 0
KCH1 140219Z 35017KT 05/00 A30 RMK A01 T00460000  RH  072%=      5-min Rain = 0.01
KCH1 140220Z 35014G19KT 05/00 A30 RMK A01 T00470001  RH  072%=      5-min Rain = 0
KCH1 140221Z 35016KT 05/00 A30 RMK A01 T004700-0  RH  072%=      5-min Rain = 0
KCH1 140222Z 35017G25KT 05/00 A30 RMK A01 T00480000  RH  071%=      5-min Rain = 0
KCH1 140223Z 35017G24KT 05/M00 A30 RMK A01 T00481001  RH  071%=      5-min Rain = 0.01
KCH1 140224Z 34013KT 05/00 A30 RMK A01 T00490001  RH  071%=      5-min Rain = 0
KCH1 140225Z 34012G18KT 05/00 A30 RMK A01 T00470001  RH  072%=      5-min Rain = 0
KCH1 140226Z 33019G38KT 05/00 A30 RMK A01 T00460001  RH  073%=      5-min Rain = 0.01
KCH1 140227Z 34025G34KT 05/M00 A2999 RMK A01 T00491001  RH  070%=      5-min Rain = 0
KCH1 140228Z 34020G28KT 05/M00 A2999 RMK A01 T00521002  RH  068%=      5-min Rain = 0
KCH1 140229Z 35019G26KT 05/M00 A2999 RMK A01 T00521002  RH  068%=      5-min Rain = 0
KCH1 140230Z 34019G24KT 05/M00 A2999 RMK A01 T00511002  RH  069%=      5-min Rain = 0.01
KCH1 140231Z 33016G23KT 05/M00 A2999 RMK A01 T00511002  RH  069%=      5-min Rain = 0
KCH1 140232Z 33018G24KT 05/M00 A2999 RMK A01 T00511002  RH  069%=      5-min Rain = 0.01
KCH1 140233Z 33016KT 05/M00 A2999 RMK A01 T00511001  RH  069%=      5-min Rain = 0
KCH1 140234Z 33016G24KT 05/M00 A2999 RMK A01 T00501003  RH  069%=      5-min Rain = 0
KCH1 140235Z 33015G21KT 05/M00 A2999 RMK A01 T00511002  RH  069%=      5-min Rain = 0
KCH1 140236Z 34016KT 05/M00 A2999 RMK A01 T00501002  RH  069%=      5-min Rain = 0.01
KCH1 140237Z 34015G21KT 05/M00 A2999 RMK A01 T00491002  RH  070%=      5-min Rain = 0
KCH1 140238Z 33015KT 05/M00 A2999 RMK A01 T00491002  RH  070%=      5-min Rain = 0
KCH1 140239Z 33013KT 05/M00 A2999 RMK A01 T00481002  RH  070%=      5-min Rain = 0.01
KCH1 140240Z 33012KT 05/M00 A30 RMK A01 T00481001  RH  071%=      5-min Rain = 0
KCH1 140241Z 33015G20KT 05/M00 A2999 RMK A01 T00471002  RH  071%=      5-min Rain = 0
KCH1 140242Z 32016KT 05/M00 A2999 RMK A01 T00471002  RH  070%=      5-min Rain = 0
KCH1 140243Z 33014KT 05/M00 A30 RMK A01 T00471003  RH  070%=      5-min Rain = 0.01
KCH1 140244Z 33015KT 05/M00 A2999 RMK A01 T00471003  RH  070%=      5-min Rain = 0
KCH1 140245Z 33016KT 05/M00 A2999 RMK A01 T00481003  RH  070%=      5-min Rain = 0.01
KCH1 140246Z 33013G18KT 05/M00 A2999 RMK A01 T00481003  RH  070%=      5-min Rain = 0
KCH1 140247Z 33017G22KT 05/M00 A2999 RMK A01 T00481003  RH  070%=      5-min Rain = 0
KCH1 140248Z 33013G20KT 05/M00 A30 RMK A01 T00481003  RH  069%=      5-min Rain = 0
KCH1 140249Z 34016G23KT 05/M00 A30 RMK A01 T00481003  RH  070%=      5-min Rain = 0.01
KCH1 140250Z 34014KT 05/M00 A30 RMK A01 T00481004  RH  069%=      5-min Rain = 0
KCH1 140251Z 33010KT 05/M00 A30 RMK A01 T00481002  RH  070%=      5-min Rain = 0
KCH1 140252Z 33013G21KT 05/M00 A2999 RMK A01 T00461001  RH  072%=      5-min Rain = 0.01
KCH1 140253Z 34015KT 05/M00 A2999 RMK A01 T00461003  RH  071%=      5-min Rain = 0
KCH1 140254Z 33014KT 05/M00 A30 RMK A01 T00471003  RH  070%=      5-min Rain = 0
KCH1 140255Z 33013KT 05/M00 A2999 RMK A01 T00471003  RH  070%=      5-min Rain = 0
KCH1 140256Z 33012KT 05/M00 A30 RMK A01 T00471003  RH  070%=      5-min Rain = 0.01
KCH1 140257Z 33012KT 05/M00 A30 RMK A01 T00471003  RH  070%=      5-min Rain = 0
KCH1 140258Z 33013KT 05/M00 A30 RMK A01 T00471002  RH  071%=      5-min Rain = 0
KCH1 140259Z 33013KT 05/M00 A30 RMK A01 T00461003  RH  071%=      5-min Rain = 0.01
KCH1 140300Z 33012KT 05/M00 A30 RMK A01 T00461002  RH  071%=      5-min Rain = 0
KCH1 140301Z 34012KT 05/M00 A30 RMK A01 T00461002  RH  071%=      5-min Rain = 0
KCH1 140302Z 33013KT 05/M00 A30 RMK A01 T00451002  RH  071%=      5-min Rain = 0
KCH1 140303Z 33013KT 05/M00 A30 RMK A01 T00451002  RH  071%=      5-min Rain = 0
KCH1 140304Z 34012KT 05/M00 A30 RMK A01 T00461003  RH  071%=      5-min Rain = 0
KCH1 140305Z 33012G17KT 05/M00 A30 RMK A01 T00461003  RH  071%=      5-min Rain = 0
KCH1 140306Z 34012KT 05/M00 A30 RMK A01 T00451004  RH  070%=      5-min Rain = 0.01
KCH1 140307Z 34011KT 05/M00 A30 RMK A01 T00461003  RH  071%=      5-min Rain = 0
KCH1 140308Z 34010G16KT 05/M00 A30 RMK A01 T00461003  RH  071%=      5-min Rain = 0
KCH1 140309Z 34012KT 05/M00 A30 RMK A01 T00461002  RH  071%=      5-min Rain = 0
KCH1 140310Z 33011KT 05/M00 A30 RMK A01 T00451003  RH  071%=      5-min Rain = 0
KCH1 140311Z 33010G15KT 05/M00 A30 RMK A01 T00451003  RH  071%=      5-min Rain = 0
KCH1 140312Z 34011KT 05/M00 A30 RMK A01 T00451002  RH  072%=      5-min Rain = 0
KCH1 140313Z 33012KT 04/M00 A30 RMK A01 T00441002  RH  072%=      5-min Rain = 0
KCH1 140314Z 34011G16KT 05/M00 A30 RMK A01 T00451003  RH  071%=      5-min Rain = 0.01
KCH1 140315Z 33011KT 05/M00 A30 RMK A01 T00451003  RH  071%=      5-min Rain = 0
KCH1 140316Z 33011KT 05/M00 A30 RMK A01 T00451002  RH  072%=      5-min Rain = 0
KCH1 140317Z 33010KT 04/M00 A30 RMK A01 T00441002  RH  072%=      5-min Rain = 0
KCH1 140318Z 33009KT 04/M00 A30 RMK A01 T00441002  RH  072%=      5-min Rain = 0
KCH1 140319Z 33010KT 04/M00 A30 RMK A01 T00441001  RH  073%=      5-min Rain = 0
KCH1 140320Z 34009G15KT 04/M00 A30 RMK A01 T00431001  RH  073%=      5-min Rain = 0
KCH1 140321Z 34012KT 04/M00 A30 RMK A01 T00421001  RH  073%=      5-min Rain = 0
KCH1 140322Z 33008KT 04/M00 A30 RMK A01 T00421001  RH  073%=      5-min Rain = 0
KCH1 140323Z 34010KT 04/M00 A30 RMK A01 T00421001  RH  074%=      5-min Rain = 0
KCH1 140324Z 33011KT 04/M00 A30 RMK A01 T00421002  RH  074%=      5-min Rain = 0.01
KCH1 140325Z 33010KT 04/M00 A30 RMK A01 T00421002  RH  073%=      5-min Rain = 0
KCH1 140326Z 33012G17KT 04/M00 A30 RMK A01 T00421002  RH  073%=      5-min Rain = 0
KCH1 140327Z 33012KT 04/M00 A30 RMK A01 T00431003  RH  072%=      5-min Rain = 0
KCH1 140328Z 33013KT 04/M00 A30 RMK A01 T00441003  RH  071%=      5-min Rain = 0
KCH1 140329Z 34012G17KT 05/M00 A30 RMK A01 T00451004  RH  071%=      5-min Rain = 0
KCH1 140330Z 33012KT 05/M00 A30 RMK A01 T00451003  RH  071%=      5-min Rain = 0
KCH1 140331Z 33012G17KT 05/M00 A30 RMK A01 T00451004  RH  071%=      5-min Rain = 0
KCH1 140332Z 34013KT 05/M01 A30 RMK A01 T00451005  RH  070%=      5-min Rain = 0.01
KCH1 140333Z 34013G19KT 05/M01 A3001 RMK A01 T00451005  RH  070%=      5-min Rain = 0
KCH1 140334Z 34013KT 05/M01 A30 RMK A01 T00451005  RH  070%=      5-min Rain = 0
KCH1 140335Z 34009KT 05/M01 A3001 RMK A01 T00461005  RH  070%=      5-min Rain = 0
KCH1 140336Z 34013KT 05/M01 A3001 RMK A01 T00451005  RH  070%=      5-min Rain = 0
KCH1 140337Z 34012G17KT 05/M01 A30 RMK A01 T00451007  RH  069%=      5-min Rain = 0
KCH1 140338Z 34011G17KT 05/M01 A3001 RMK A01 T00461006  RH  069%=      5-min Rain = 0
KCH1 140339Z 34013KT 05/M01 A3001 RMK A01 T00461006  RH  069%=      5-min Rain = 0
KCH1 140340Z 34012KT 05/M01 A3001 RMK A01 T00461006  RH  069%=      5-min Rain = 0
KCH1 140341Z 34012G19KT 05/M01 A3001 RMK A01 T00461006  RH  069%=      5-min Rain = 0
KCH1 140342Z 34015KT 05/M01 A3001 RMK A01 T00461008  RH  068%=      5-min Rain = 0.01
KCH1 140343Z 34010KT 05/M01 A3001 RMK A01 T00461008  RH  068%=      5-min Rain = 0
KCH1 140344Z 35012KT 05/M01 A3001 RMK A01 T00461007  RH  068%=      5-min Rain = 0
KCH1 140345Z 34012KT 05/M01 A3001 RMK A01 T00461008  RH  068%=      5-min Rain = 0
KCH1 140346Z 34014G19KT 05/M01 A3001 RMK A01 T00461009  RH  068%=      5-min Rain = 0
KCH1 140347Z 34011KT 05/M01 A3001 RMK A01 T00461010  RH  067%=      5-min Rain = 0
KCH1 140348Z 34012KT 05/M01 A3001 RMK A01 T00461009  RH  068%=      5-min Rain = 0
KCH1 140349Z 33012KT 05/M01 A3001 RMK A01 T00461010  RH  067%=      5-min Rain = 0
KCH1 140350Z 34017KT 05/M01 A3001 RMK A01 T00461011  RH  067%=      5-min Rain = 0
KCH1 140351Z 34014G20KT 05/M01 A3001 RMK A01 T00471012  RH  066%=      5-min Rain = 0.01
KCH1 140352Z 34014G19KT 05/M01 A3001 RMK A01 T00471011  RH  066%=      5-min Rain = 0
KCH1 140353Z 34012KT 05/M01 A3001 RMK A01 T00471011  RH  066%=      5-min Rain = 0
KCH1 140354Z 35014KT 05/M01 A3001 RMK A01 T00471011  RH  066%=      5-min Rain = 0
KCH1 140355Z 34012G19KT 05/M01 A3001 RMK A01 T00471012  RH  066%=      5-min Rain = 0
KCH1 140356Z 34014KT 05/M01 A3001 RMK A01 T00471013  RH  065%=      5-min Rain = 0
KCH1 140357Z 34013KT 05/M01 A3001 RMK A01 T00471013  RH  065%=      5-min Rain = 0
KCH1 140358Z 34014KT 05/M01 A3001 RMK A01 T00471012  RH  065%=      5-min Rain = 0
KCH1 140359Z 34011KT 05/M01 A3001 RMK A01 T00481012  RH  065%=      5-min Rain = 0
KCH1 140400Z 33010KT 05/M01 A3001 RMK A01 T00471012  RH  066%=      5-min Rain = 0
KCH1 140401Z 34011G16KT 05/M01 A3001 RMK A01 T00461011  RH  066%=      5-min Rain = 0.01
KCH1 140402Z 34014G19KT 05/M01 A3001 RMK A01 T00451012  RH  067%=      5-min Rain = 0
KCH1 140403Z 33013KT 05/M01 A3001 RMK A01 T00451013  RH  066%=      5-min Rain = 0
KCH1 140404Z 34013G18KT 05/M01 A3001 RMK A01 T00451012  RH  066%=      5-min Rain = 0
KCH1 140405Z 33013G20KT 05/M01 A3001 RMK A01 T00461012  RH  066%=      5-min Rain = 0
KCH1 140406Z 34016KT 05/M01 A3001 RMK A01 T00461013  RH  066%=      5-min Rain = 0
KCH1 140407Z 34015G20KT 05/M01 A3001 RMK A01 T00461014  RH  065%=      5-min Rain = 0
KCH1 140408Z 33013G18KT 05/M01 A3002 RMK A01 T00471014  RH  065%=      5-min Rain = 0
KCH1 140409Z 34012KT 05/M02 A3002 RMK A01 T00461015  RH  065%=      5-min Rain = 0
KCH1 140410Z 35017G22KT 05/M01 A3002 RMK A01 T00471014  RH  065%=      5-min Rain = 0
KCH1 140411Z 34020G26KT 05/M02 A3002 RMK A01 T00471017  RH  063%=      5-min Rain = 0.01
KCH1 140412Z 34015G23KT 05/M02 A3002 RMK A01 T00491018  RH  062%=      5-min Rain = 0
KCH1 140413Z 33016G23KT 05/M02 A3001 RMK A01 T00491018  RH  062%=      5-min Rain = 0
KCH1 140414Z 34014KT 05/M02 A3002 RMK A01 T00491018  RH  062%=      5-min Rain = 0
KCH1 140415Z 34013G18KT 05/M02 A3002 RMK A01 T00491017  RH  062%=      5-min Rain = 0
KCH1 140416Z 33012KT 05/M02 A3002 RMK A01 T00481016  RH  063%=      5-min Rain = 0
KCH1 140417Z 34014KT 05/M02 A3002 RMK A01 T00481016  RH  063%=      5-min Rain = 0
KCH1 140418Z 33013G19KT 05/M02 A3002 RMK A01 T00471016  RH  064%=      5-min Rain = 0
KCH1 140419Z 34014G20KT 05/M02 A3002 RMK A01 T00471016  RH  064%=      5-min Rain = 0
KCH1 140420Z 34014G20KT 05/M02 A3002 RMK A01 T00471016  RH  064%=      5-min Rain = 0
KCH1 140421Z 34019KT 05/M02 A3002 RMK A01 T00471018  RH  063%=      5-min Rain = 0.01
KCH1 140422Z 34021KT 05/M02 A3002 RMK A01 T00481020  RH  061%=      5-min Rain = 0
KCH1 140423Z 34016G23KT 05/M02 A3002 RMK A01 T00501021  RH  060%=      5-min Rain = 0
KCH1 140424Z 35021G26KT 05/M02 A3002 RMK A01 T00501021  RH  060%=      5-min Rain = 0
KCH1 140425Z 34018G26KT 05/M02 A3002 RMK A01 T00511022  RH  059%=      5-min Rain = 0
KCH1 140426Z 34017G28KT 05/M02 A3002 RMK A01 T00501023  RH  059%=      5-min Rain = 0
KCH1 140427Z 35015G22KT 05/M02 A3002 RMK A01 T00511021  RH  060%=      5-min Rain = 0
KCH1 140428Z 34012G17KT 05/M02 A3002 RMK A01 T00501020  RH  061%=      5-min Rain = 0.01
KCH1 140429Z 34017G22KT 05/M02 A3002 RMK A01 T00481020  RH  061%=      5-min Rain = 0
KCH1 140430Z 34016G24KT 05/M02 A3002 RMK A01 T00481021  RH  061%=      5-min Rain = 0
KCH1 140431Z 34014KT 05/M02 A3002 RMK A01 T00491021  RH  061%=      5-min Rain = 0
KCH1 140432Z 34016G21KT 05/M02 A3002 RMK A01 T00491020  RH  061%=      5-min Rain = 0
KCH1 140433Z 34014KT 05/M02 A3002 RMK A01 T00481020  RH  061%=      5-min Rain = 0
KCH1 140434Z 34012KT 05/M02 A3002 RMK A01 T00471018  RH  062%=      5-min Rain = 0
KCH1 140435Z 33011G16KT 05/M02 A3002 RMK A01 T00461018  RH  063%=      5-min Rain = 0
KCH1 140436Z 33014KT 05/M02 A3002 RMK A01 T00461017  RH  064%=      5-min Rain = 0.01
KCH1 140437Z 34014KT 05/M02 A3002 RMK A01 T00451019  RH  063%=      5-min Rain = 0
KCH1 140438Z 33019G24KT 05/M02 A3002 RMK A01 T00461021  RH  062%=      5-min Rain = 0
KCH1 140439Z 33013G21KT 05/M02 A3002 RMK A01 T00471021  RH  061%=      5-min Rain = 0
KCH1 140440Z 33014G20KT 05/M02 A3002 RMK A01 T00481020  RH  062%=      5-min Rain = 0
KCH1 140441Z 33015KT 05/M02 A3002 RMK A01 T00471021  RH  061%=      5-min Rain = 0
KCH1 140442Z 33014G19KT 05/M02 A3002 RMK A01 T00471022  RH  061%=      5-min Rain = 0
KCH1 140443Z 33014G19KT 05/M02 A3002 RMK A01 T00471021  RH  061%=      5-min Rain = 0
KCH1 140444Z 34016G21KT 05/M02 A3002 RMK A01 T00471022  RH  061%=      5-min Rain = 0.01
KCH1 140445Z 33015G25KT 05/M02 A3002 RMK A01 T00471023  RH  061%=      5-min Rain = 0
KCH1 140446Z 34017G23KT 05/M02 A3003 RMK A01 T00471023  RH  060%=      5-min Rain = 0
KCH1 140447Z 34014G19KT 05/M02 A3003 RMK A01 T00471023  RH  060%=      5-min Rain = 0
KCH1 140448Z 34014G19KT 05/M02 A3003 RMK A01 T00471023  RH  060%=      5-min Rain = 0
KCH1 140449Z 34015G24KT 05/M02 A3003 RMK A01 T00471023  RH  060%=      5-min Rain = 0
KCH1 140450Z 34014G22KT 05/M02 A3003 RMK A01 T00471023  RH  060%=      5-min Rain = 0
KCH1 140451Z 34014KT 05/M02 A3003 RMK A01 T00471024  RH  060%=      5-min Rain = 0
KCH1 140452Z 34018G24KT 05/M02 A3003 RMK A01 T00471023  RH  060%=      5-min Rain = 0
KCH1 140453Z 33015KT 05/M02 A3003 RMK A01 T00471024  RH  060%=      5-min Rain = 0
KCH1 140454Z 33018G29KT 05/M02 A3003 RMK A01 T00471024  RH  060%=      5-min Rain = 0
KCH1 140455Z 34020G27KT 05/M03 A3003 RMK A01 T00471027  RH  059%=      5-min Rain = 0.01
KCH1 140456Z 34013KT 05/M03 A3003 RMK A01 T00491026  RH  059%=      5-min Rain = 0
KCH1 140457Z 34019KT 05/M03 A3003 RMK A01 T00481026  RH  059%=      5-min Rain = 0
KCH1 140458Z 34017G22KT 05/M03 A3003 RMK A01 T00481027  RH  058%=      5-min Rain = 0
KCH1 140459Z 33020KT 05/M03 A3003 RMK A01 T00481026  RH  058%=      5-min Rain = 0
KCH1 140500Z 34017G23KT 05/M03 A3003 RMK A01 T00481027  RH  058%=      5-min Rain = 0
KCH1 140501Z 34017G23KT 05/M03 A3003 RMK A01 T00481026  RH  058%=      5-min Rain = 0
KCH1 140502Z 33017KT 05/M03 A3003 RMK A01 T00481028  RH  058%=      5-min Rain = 0
KCH1 140503Z 34019G25KT 05/M03 A3003 RMK A01 T00481027  RH  058%=      5-min Rain = 0
KCH1 140504Z 34019G25KT 05/M03 A3003 RMK A01 T00481027  RH  058%=      5-min Rain = 0
KCH1 140505Z 34015KT 05/M03 A3003 RMK A01 T00481028  RH  058%=      5-min Rain = 0
KCH1 140506Z 34015G22KT 05/M03 A3004 RMK A01 T00471026  RH  059%=      5-min Rain = 0
KCH1 140507Z 34020G25KT 05/M03 A3003 RMK A01 T00471028  RH  058%=      5-min Rain = 0.01
KCH1 140508Z 34015KT 05/M03 A3003 RMK A01 T00481029  RH  057%=      5-min Rain = 0
KCH1 140509Z 34017G24KT 05/M03 A3003 RMK A01 T00481028  RH  058%=      5-min Rain = 0
KCH1 140510Z 34015G21KT 05/M03 A3003 RMK A01 T00471028  RH  058%=      5-min Rain = 0
KCH1 140511Z 34014G20KT 05/M03 A3003 RMK A01 T00471028  RH  058%=      5-min Rain = 0
KCH1 140512Z 33014G20KT 05/M03 A3003 RMK A01 T00471026  RH  059%=      5-min Rain = 0
KCH1 140513Z 33016G25KT 05/M03 A3004 RMK A01 T00471027  RH  059%=      5-min Rain = 0
KCH1 140514Z 34020G29KT 05/M03 A3003 RMK A01 T00471030  RH  057%=      5-min Rain = 0
KCH1 140515Z 33015KT 05/M03 A3004 RMK A01 T00481028  RH  058%=      5-min Rain = 0
KCH1 140516Z 33015G22KT 05/M03 A3004 RMK A01 T00471028  RH  058%=      5-min Rain = 0
KCH1 140517Z 34014G20KT 05/M03 A3004 RMK A01 T00471028  RH  058%=      5-min Rain = 0
KCH1 140518Z 34013G19KT 05/M03 A3004 RMK A01 T00471028  RH  059%=      5-min Rain = 0
KCH1 140519Z 34016G23KT 05/M03 A3003 RMK A01 T00461028  RH  058%=      5-min Rain = 0
KCH1 140520Z 33015KT 05/M03 A3003 RMK A01 T00471030  RH  058%=      5-min Rain = 0
KCH1 140521Z 34016G21KT 05/M03 A3003 RMK A01 T00471028  RH  058%=      5-min Rain = 0
KCH1 140522Z 33015G21KT 05/M03 A3003 RMK A01 T00461029  RH  058%=      5-min Rain = 0
KCH1 140523Z 33014G22KT 05/M03 A3003 RMK A01 T00461029  RH  058%=      5-min Rain = 0.01
KCH1 140524Z 33015G22KT 05/M03 A3004 RMK A01 T00461029  RH  058%=      5-min Rain = 0
KCH1 140525Z 34015G20KT 05/M03 A3004 RMK A01 T00461029  RH  058%=      5-min Rain = 0
KCH1 140526Z 34014KT 05/M03 A3004 RMK A01 T00461029  RH  058%=      5-min Rain = 0
KCH1 140527Z 33014G20KT 05/M03 A3004 RMK A01 T00461029  RH  058%=      5-min Rain = 0
KCH1 140528Z 33016KT 05/M03 A3003 RMK A01 T00461029  RH  058%=      5-min Rain = 0
KCH1 140529Z 33017G23KT 05/M03 A3004 RMK A01 T00451030  RH  058%=      5-min Rain = 0
KCH1 140530Z 33016KT 05/M03 A3004 RMK A01 T00461031  RH  058%=      5-min Rain = 0
KCH1 140531Z 34016G22KT 05/M03 A3004 RMK A01 T00461032  RH  057%=      5-min Rain = 0
KCH1 140532Z 33015KT 05/M03 A3003 RMK A01 T00461032  RH  057%=      5-min Rain = 0
KCH1 140533Z 34015G20KT 05/M03 A3003 RMK A01 T00471031  RH  057%=      5-min Rain = 0
KCH1 140534Z 33016G21KT 05/M03 A3004 RMK A01 T00461031  RH  057%=      5-min Rain = 0
KCH1 140535Z 33011KT 05/M03 A3004 RMK A01 T00461030  RH  058%=      5-min Rain = 0
KCH1 140536Z 33012G17KT 05/M03 A3004 RMK A01 T00451028  RH  059%=      5-min Rain = 0
KCH1 140537Z 33016KT 04/M03 A3004 RMK A01 T00441029  RH  059%=      5-min Rain = 0
KCH1 140538Z 34016KT 04/M03 A3004 RMK A01 T00441030  RH  059%=      5-min Rain = 0
KCH1 140539Z 34014KT 04/M03 A3004 RMK A01 T00441031  RH  058%=      5-min Rain = 0
KCH1 140540Z 33014G19KT 04/M03 A3004 RMK A01 T00441032  RH  058%=      5-min Rain = 0
KCH1 140541Z 34015G21KT 05/M03 A3004 RMK A01 T00451031  RH  058%=      5-min Rain = 0.01
KCH1 140542Z 34012KT 04/M03 A3004 RMK A01 T00441030  RH  059%=      5-min Rain = 0
KCH1 140543Z 33015G22KT 04/M03 A3004 RMK A01 T00441031  RH  058%=      5-min Rain = 0
KCH1 140544Z 33013G18KT 04/M03 A3004 RMK A01 T00441032  RH  058%=      5-min Rain = 0
KCH1 140545Z 33017G24KT 04/M03 A3004 RMK A01 T00441031  RH  058%=      5-min Rain = 0
KCH1 140546Z 33013G21KT 04/M03 A3004 RMK A01 T00441031  RH  058%=      5-min Rain = 0
KCH1 140547Z 34017G22KT 04/M03 A3004 RMK A01 T00441032  RH  058%=      5-min Rain = 0
KCH1 140548Z 34013KT 04/M03 A3004 RMK A01 T00441032  RH  058%=      5-min Rain = 0
KCH1 140549Z 33013G18KT 04/M03 A3004 RMK A01 T00441031  RH  058%=      5-min Rain = 0
KCH1 140550Z 33016KT 04/M03 A3004 RMK A01 T00441032  RH  058%=      5-min Rain = 0
KCH1 140551Z 33014G19KT 04/M03 A3005 RMK A01 T00441032  RH  058%=      5-min Rain = 0
KCH1 140552Z 33013KT 04/M03 A3005 RMK A01 T00441031  RH  058%=      5-min Rain = 0
KCH1 140553Z 34015KT 04/M03 A3005 RMK A01 T00441031  RH  058%=      5-min Rain = 0
KCH1 140554Z 34015KT 04/M03 A3005 RMK A01 T00431032  RH  058%=      5-min Rain = 0
KCH1 140555Z 33019KT 04/M03 A3005 RMK A01 T00431034  RH  057%=      5-min Rain = 0
KCH1 140556Z 33013G18KT 04/M03 A3005 RMK A01 T00441034  RH  057%=      5-min Rain = 0
KCH1 140557Z 34016G24KT 04/M03 A3005 RMK A01 T00441034  RH  057%=      5-min Rain = 0
KCH1 140558Z 34017G23KT 04/M03 A3005 RMK A01 T00441033  RH  057%=      5-min Rain = 0
KCH1 140559Z 34013G23KT 04/M04 A3005 RMK A01 T00441035  RH  057%=      5-min Rain = 0
KCH1 140600Z 34014G22KT 04/M03 A3005 RMK A01 T00441034  RH  057%=      5-min Rain = 0

Page generated in 0.0509 seconds.